Time,TemperatureF,DewpointF,PressureIn,WindDirection,WindDirectionDegrees,WindSpeedMPH,WindSpeedGustMPH,Humidity,HourlyPrecipIn,Conditions,Clouds,dailyrainin,SoftwareType,DateUTC
2013-08-20 00:01:00,69.4,54.0,29.20,SSE,158,3.5,3.5,58,0.00,CLR,,0.00,WeatherDisplay:10.37,2013-08-20 05:01:00,
2013-08-20 00:03:00,69.4,54.5,29.20,SSW,202,3.5,3.5,59,0.00,CLR,,0.00,WeatherDisplay:10.37,2013-08-20 05:03:00,
2013-08-20 00:04:00,69.4,54.5,29.20,SSE,158,3.5,3.5,59,0.00,CLR,,0.00,WeatherDisplay:10.37,2013-08-20 05:04:00,
2013-08-20 00:05:00,69.4,54.5,29.20,SSE,161,2.0,0.0,59,0.00,CLR,,0.00,WeatherDisplay:10.37,2013-08-20 05:05:00,
2013-08-20 00:06:00,69.4,54.9,29.20,SSE,158,2.4,2.4,60,0.00,CLR,,0.00,WeatherDisplay:10.37,2013-08-20 05:06:00,
2013-08-20 00:08:00,69.4,54.9,29.20,SSE,158,2.3,2.3,60,0.00,CLR,,0.00,WeatherDisplay:10.37,2013-08-20 05:08:00,
2013-08-20 00:10:00,69.4,54.9,29.20,South,180,3.5,3.5,60,0.00,CLR,,0.00,WeatherDisplay:10.37,2013-08-20 05:10:00,
2013-08-20 00:12:00,69.4,54.9,29.20,SSE,158,3.5,3.5,60,0.00,CLR,,0.00,WeatherDisplay:10.37,2013-08-20 05:12:00,
2013-08-20 00:13:00,69.3,54.8,29.20,SSE,158,3.5,3.5,60,0.00,CLR,,0.00,WeatherDisplay:10.37,2013-08-20 05:13:00,
2013-08-20 00:14:00,69.3,54.8,29.20,SSE,158,3.5,3.5,60,0.00,CLR,,0.00,WeatherDisplay:10.37,2013-08-20 05:14:00,
2013-08-20 00:15:00,69.3,54.8,29.20,SSE,158,3.5,3.5,60,0.00,CLR,,0.00,WeatherDisplay:10.37,2013-08-20 05:15:00,
2013-08-20 00:20:00,69.3,54.8,29.20,SSE,162,2.0,0.0,60,0.00,CLR,,0.00,WeatherDisplay:10.37,2013-08-20 05:20:00,
2013-08-20 00:21:00,69.3,55.2,29.20,South,180,2.3,2.3,61,0.00,CLR,,0.00,WeatherDisplay:10.37,2013-08-20 05:21:00,
2013-08-20 00:22:00,69.3,55.2,29.20,SSE,158,2.3,2.3,61,0.00,CLR,,0.00,WeatherDisplay:10.37,2013-08-20 05:22:00,
2013-08-20 00:25:00,69.3,55.7,29.20,SSE,161,1.0,0.0,62,0.00,CLR,,0.00,WeatherDisplay:10.37,2013-08-20 05:25:00,
2013-08-20 00:26:00,69.3,55.2,29.20,South,180,1.1,0.0,61,0.00,CLR,,0.00,WeatherDisplay:10.37,2013-08-20 05:26:00,
2013-08-20 00:27:00,69.3,55.2,29.20,SE,135,2.3,2.3,61,0.00,CLR,,0.00,WeatherDisplay:10.37,2013-08-20 05:27:00,
2013-08-20 00:28:00,69.3,55.2,29.20,South,180,2.9,2.9,61,0.00,CLR,,0.00,WeatherDisplay:10.37,2013-08-20 05:28:00,
2013-08-20 00:33:00,69.1,55.5,29.20,SSE,158,2.3,0.0,62,0.00,CLR,,0.00,WeatherDisplay:10.37,2013-08-20 05:33:00,
2013-08-20 00:34:00,69.1,55.1,29.20,SSE,158,2.3,2.3,61,0.00,CLR,,0.00,WeatherDisplay:10.37,2013-08-20 05:34:00,
2013-08-20 00:35:00,69.1,55.1,29.20,SSE,167,1.0,0.0,61,0.00,CLR,,0.00,WeatherDisplay:10.37,2013-08-20 05:35:00,
2013-08-20 00:38:00,69.1,55.1,29.20,SSE,158,5.8,5.8,61,0.00,CLR,,0.00,WeatherDisplay:10.37,2013-08-20 05:38:00,
2013-08-20 00:39:00,69.1,55.1,29.20,SE,135,4.6,4.6,61,0.00,CLR,,0.00,WeatherDisplay:10.37,2013-08-20 05:39:00,
2013-08-20 00:40:00,69.1,55.1,29.20,SSE,158,3.5,3.5,61,0.00,CLR,,0.00,WeatherDisplay:10.37,2013-08-20 05:40:00,
2013-08-20 00:43:00,68.9,55.3,29.20,South,180,3.5,3.5,62,0.00,CLR,,0.00,WeatherDisplay:10.37,2013-08-20 05:43:00,
2013-08-20 00:44:00,68.9,55.3,29.20,SSW,202,3.8,3.8,62,0.00,CLR,,0.00,WeatherDisplay:10.37,2013-08-20 05:44:00,
2013-08-20 00:45:00,69.1,55.5,29.20,SSW,202,3.5,3.5,62,0.00,CLR,,0.00,WeatherDisplay:10.37,2013-08-20 05:45:00,
2013-08-20 00:46:00,68.9,54.9,29.20,SSE,158,3.5,3.5,61,0.00,CLR,,0.00,WeatherDisplay:10.37,2013-08-20 05:46:00,
2013-08-20 00:50:00,68.9,55.3,29.20,SSE,168,2.0,0.0,62,0.00,CLR,,0.00,WeatherDisplay:10.37,2013-08-20 05:50:00,
2013-08-20 00:52:00,68.9,55.3,29.20,SSE,158,3.5,3.5,62,0.00,CLR,,0.00,WeatherDisplay:10.37,2013-08-20 05:52:00,
2013-08-20 00:54:00,68.7,54.7,29.20,SSE,158,4.6,4.6,61,0.00,CLR,,0.00,WeatherDisplay:10.37,2013-08-20 05:54:00,
2013-08-20 00:55:00,68.7,54.7,29.20,SSE,158,4.6,4.6,61,0.00,CLR,,0.00,WeatherDisplay:10.37,2013-08-20 05:55:00,
2013-08-20 00:56:00,68.7,54.7,29.18,South,180,4.6,4.6,61,0.00,CLR,,0.00,WeatherDisplay:10.37,2013-08-20 05:56:00,
2013-08-20 00:57:00,68.7,55.2,29.18,ESE,112,4.6,4.6,62,0.00,CLR,,0.00,WeatherDisplay:10.37,2013-08-20 05:57:00,
2013-08-20 01:00:00,68.7,55.2,29.18,SSE,160,2.0,0.0,62,0.00,CLR,,0.00,WeatherDisplay:10.37,2013-08-20 06:00:00,
2013-08-20 01:01:00,68.7,55.2,29.18,SSE,158,4.6,4.6,62,0.00,CLR,,0.00,WeatherDisplay:10.37,2013-08-20 06:01:00,
2013-08-20 01:05:00,68.7,55.2,29.18,SSE,158,4.3,4.3,62,0.00,CLR,,0.00,WeatherDisplay:10.37,2013-08-20 06:05:00,
2013-08-20 01:06:00,68.7,55.2,29.18,South,180,4.6,4.6,62,0.00,CLR,,0.00,WeatherDisplay:10.37,2013-08-20 06:06:00,
2013-08-20 01:07:00,68.5,55.0,29.18,South,180,3.5,3.5,62,0.00,CLR,,0.00,WeatherDisplay:10.37,2013-08-20 06:07:00,
2013-08-20 01:11:00,68.5,55.4,29.20,SSE,158,4.6,4.6,63,0.00,CLR,,0.00,WeatherDisplay:10.37,2013-08-20 06:11:00,
2013-08-20 01:12:00,68.5,55.4,29.20,South,180,5.4,5.4,63,0.00,CLR,,0.00,WeatherDisplay:10.37,2013-08-20 06:12:00,
2013-08-20 01:14:00,68.5,55.4,29.20,SSE,158,4.6,4.6,63,0.00,CLR,,0.00,WeatherDisplay:10.37,2013-08-20 06:14:00,
2013-08-20 01:15:00,68.5,55.4,29.20,SSE,161,3.0,0.0,63,0.00,CLR,,0.00,WeatherDisplay:10.37,2013-08-20 06:15:00,
2013-08-20 01:16:00,68.5,55.4,29.20,SSW,202,5.8,5.8,63,0.00,CLR,,0.00,WeatherDisplay:10.37,2013-08-20 06:16:00,
2013-08-20 01:18:00,68.5,55.4,29.20,SSE,158,3.5,3.5,63,0.00,CLR,,0.00,WeatherDisplay:10.37,2013-08-20 06:18:00,
2013-08-20 01:19:00,68.5,55.4,29.20,South,180,5.9,5.9,63,0.00,CLR,,0.00,WeatherDisplay:10.37,2013-08-20 06:19:00,
2013-08-20 01:20:00,68.5,55.4,29.20,SSE,158,5.8,5.8,63,0.00,CLR,,0.00,WeatherDisplay:10.37,2013-08-20 06:20:00,
2013-08-20 01:21:00,68.4,55.3,29.20,South,180,3.5,3.5,63,0.00,CLR,,0.00,WeatherDisplay:10.37,2013-08-20 06:21:00,
2013-08-20 01:22:00,68.4,55.3,29.20,SSE,158,3.5,3.5,63,0.00,CLR,,0.00,WeatherDisplay:10.37,2013-08-20 06:22:00,
2013-08-20 01:23:00,68.4,55.3,29.20,SSE,158,4.0,4.0,63,0.00,CLR,,0.00,WeatherDisplay:10.37,2013-08-20 06:23:00,
2013-08-20 01:24:00,68.4,55.7,29.20,WSW,248,4.6,4.6,64,0.00,CLR,,0.00,WeatherDisplay:10.37,2013-08-20 06:24:00,
2013-08-20 01:27:00,68.4,55.7,29.18,South,180,3.5,3.5,64,0.00,CLR,,0.00,WeatherDisplay:10.37,2013-08-20 06:27:00,
2013-08-20 01:28:00,68.4,55.7,29.18,SSE,158,3.5,3.5,64,0.00,CLR,,0.00,WeatherDisplay:10.37,2013-08-20 06:28:00,
2013-08-20 01:30:00,68.4,55.7,29.18,SSE,158,4.6,4.6,64,0.00,CLR,,0.00,WeatherDisplay:10.37,2013-08-20 06:30:00,
2013-08-20 01:32:00,68.4,55.7,29.18,SSE,158,3.5,3.5,64,0.00,CLR,,0.00,WeatherDisplay:10.37,2013-08-20 06:32:00,
2013-08-20 01:33:00,68.4,55.7,29.18,SE,135,3.5,3.5,64,0.00,CLR,,0.00,WeatherDisplay:10.37,2013-08-20 06:33:00,
2013-08-20 01:35:00,68.3,55.6,29.18,SSE,163,3.0,0.0,64,0.00,CLR,,0.00,WeatherDisplay:10.37,2013-08-20 06:35:00,
2013-08-20 01:38:00,68.2,56.0,29.18,SSE,158,4.6,0.0,65,0.00,CLR,,0.00,WeatherDisplay:10.37,2013-08-20 06:38:00,
2013-08-20 01:39:00,68.2,56.0,29.18,SSE,158,2.9,0.0,65,0.00,CLR,,0.00,WeatherDisplay:10.37,2013-08-20 06:39:00,
2013-08-20 01:40:00,68.2,56.0,29.18,SSE,157,0.0,0.0,65,0.00,CLR,,0.00,WeatherDisplay:10.37,2013-08-20 06:40:00,
2013-08-20 01:45:00,68.0,55.8,29.20,SSE,159,2.0,0.0,65,0.00,CLR,,0.00,WeatherDisplay:10.37,2013-08-20 06:45:00,
2013-08-20 01:46:00,68.0,55.4,29.20,SE,135,3.5,3.5,64,0.00,CLR,,0.00,WeatherDisplay:10.37,2013-08-20 06:46:00,
2013-08-20 01:49:00,68.0,55.8,29.20,SSE,158,3.3,3.3,65,0.00,CLR,,0.00,WeatherDisplay:10.37,2013-08-20 06:49:00,
2013-08-20 01:50:00,68.0,55.8,29.20,SSE,160,0.0,0.0,65,0.00,CLR,,0.00,WeatherDisplay:10.37,2013-08-20 06:50:00,
2013-08-20 01:51:00,68.0,56.2,29.20,SSE,158,5.8,5.8,66,0.00,CLR,,0.00,WeatherDisplay:10.37,2013-08-20 06:51:00,
2013-08-20 01:54:00,68.0,55.8,29.20,South,180,4.6,4.6,65,0.00,CLR,,0.00,WeatherDisplay:10.37,2013-08-20 06:54:00,
2013-08-20 01:55:00,68.0,55.8,29.20,SSE,158,4.6,4.6,65,0.00,CLR,,0.00,WeatherDisplay:10.37,2013-08-20 06:55:00,
2013-08-20 01:56:00,67.8,55.6,29.18,SSE,158,4.6,4.6,65,0.00,CLR,,0.00,WeatherDisplay:10.37,2013-08-20 06:56:00,
2013-08-20 01:58:00,67.8,55.6,29.18,SE,135,3.5,3.5,65,0.00,CLR,,0.00,WeatherDisplay:10.37,2013-08-20 06:58:00,
2013-08-20 02:00:00,67.8,56.0,29.18,SE,135,4.6,4.6,66,0.00,CLR,,0.00,WeatherDisplay:10.37,2013-08-20 07:00:00,
2013-08-20 02:02:00,67.8,56.0,29.18,South,180,2.3,2.3,66,0.00,CLR,,0.00,WeatherDisplay:10.37,2013-08-20 07:02:00,
2013-08-20 02:04:00,67.8,56.0,29.18,SSE,158,4.6,4.6,66,0.00,CLR,,0.00,WeatherDisplay:10.37,2013-08-20 07:04:00,
2013-08-20 02:05:00,67.8,56.0,29.18,SSE,155,3.0,0.0,66,0.00,CLR,,0.00,WeatherDisplay:10.37,2013-08-20 07:05:00,
2013-08-20 02:07:00,67.6,55.9,29.18,SSE,158,2.3,2.3,66,0.00,CLR,,0.00,WeatherDisplay:10.37,2013-08-20 07:07:00,
2013-08-20 02:08:00,67.6,55.9,29.18,SSE,158,3.5,3.5,66,0.00,CLR,,0.00,WeatherDisplay:10.37,2013-08-20 07:08:00,
2013-08-20 02:09:00,67.6,55.9,29.18,South,180,3.5,3.5,66,0.00,CLR,,0.00,WeatherDisplay:10.37,2013-08-20 07:09:00,
2013-08-20 02:10:00,67.6,55.9,29.18,SSE,162,2.0,0.0,66,0.00,CLR,,0.00,WeatherDisplay:10.37,2013-08-20 07:10:00,
2013-08-20 02:12:00,67.6,55.9,29.18,SE,135,3.5,3.5,66,0.00,CLR,,0.00,WeatherDisplay:10.37,2013-08-20 07:12:00,
2013-08-20 02:13:00,67.6,55.9,29.18,South,180,3.5,3.5,66,0.00,CLR,,0.00,WeatherDisplay:10.37,2013-08-20 07:13:00,
2013-08-20 02:14:00,67.6,55.9,29.18,South,180,4.6,4.6,66,0.00,CLR,,0.00,WeatherDisplay:10.37,2013-08-20 07:14:00,
2013-08-20 02:15:00,67.6,55.9,29.18,SSE,162,3.0,0.0,66,0.00,CLR,,0.00,WeatherDisplay:10.37,2013-08-20 07:15:00,
2013-08-20 02:18:00,67.5,55.7,29.18,SE,135,2.4,2.4,66,0.00,CLR,,0.00,WeatherDisplay:10.37,2013-08-20 07:18:00,
2013-08-20 02:19:00,67.5,56.1,29.18,SSE,158,3.6,3.6,67,0.00,CLR,,0.00,WeatherDisplay:10.37,2013-08-20 07:19:00,
2013-08-20 02:20:00,67.5,56.1,29.18,SSE,157,2.0,0.0,67,0.00,CLR,,0.00,WeatherDisplay:10.37,2013-08-20 07:20:00,
2013-08-20 02:22:00,67.5,56.1,29.18,South,180,3.5,3.5,67,0.00,CLR,,0.00,WeatherDisplay:10.37,2013-08-20 07:22:00,
2013-08-20 02:24:00,67.5,56.1,29.18,South,180,4.0,4.0,67,0.00,CLR,,0.00,WeatherDisplay:10.37,2013-08-20 07:24:00,
2013-08-20 02:25:00,67.5,56.1,29.18,SE,135,4.6,4.6,67,0.00,CLR,,0.00,WeatherDisplay:10.37,2013-08-20 07:25:00,
2013-08-20 02:26:00,67.5,56.1,29.18,SSE,158,3.5,3.5,67,0.00,CLR,,0.00,WeatherDisplay:10.37,2013-08-20 07:26:00,
2013-08-20 02:28:00,67.5,56.1,29.18,South,180,3.1,3.1,67,0.00,CLR,,0.00,WeatherDisplay:10.37,2013-08-20 07:28:00,
2013-08-20 02:30:00,67.4,56.5,29.18,SSE,166,2.0,0.0,68,0.00,CLR,,0.00,WeatherDisplay:10.37,2013-08-20 07:30:00,
2013-08-20 02:31:00,67.3,55.9,29.18,SE,135,4.6,4.6,67,0.00,CLR,,0.00,WeatherDisplay:10.37,2013-08-20 07:31:00,
2013-08-20 02:33:00,67.3,56.4,29.18,SSE,158,3.6,3.6,68,0.00,CLR,,0.00,WeatherDisplay:10.37,2013-08-20 07:33:00,
2013-08-20 02:34:00,67.3,56.4,29.18,South,180,5.4,5.4,68,0.00,CLR,,0.00,WeatherDisplay:10.37,2013-08-20 07:34:00,
2013-08-20 02:35:00,67.3,56.4,29.18,SSE,158,5.8,5.8,68,0.00,CLR,,0.00,WeatherDisplay:10.37,2013-08-20 07:35:00,
2013-08-20 02:36:00,67.3,56.4,29.18,SSE,158,4.6,4.6,68,0.00,CLR,,0.00,WeatherDisplay:10.37,2013-08-20 07:36:00,
2013-08-20 02:37:00,67.3,56.4,29.18,SE,135,3.5,3.5,68,0.00,CLR,,0.00,WeatherDisplay:10.37,2013-08-20 07:37:00,
2013-08-20 02:40:00,67.3,56.4,29.18,SSE,158,3.5,3.5,68,0.00,CLR,,0.00,WeatherDisplay:10.37,2013-08-20 07:40:00,
2013-08-20 02:42:00,67.3,56.4,29.20,South,180,3.5,3.5,68,0.00,CLR,,0.00,WeatherDisplay:10.37,2013-08-20 07:42:00,
2013-08-20 02:43:00,67.3,56.4,29.20,SE,135,4.6,4.6,68,0.00,CLR,,0.00,WeatherDisplay:10.37,2013-08-20 07:43:00,
2013-08-20 02:45:00,67.3,56.4,29.20,SSE,159,2.0,0.0,68,0.00,CLR,,0.00,WeatherDisplay:10.37,2013-08-20 07:45:00,
2013-08-20 02:49:00,67.3,56.4,29.20,SSE,158,3.5,3.5,68,0.00,CLR,,0.00,WeatherDisplay:10.37,2013-08-20 07:49:00,
2013-08-20 02:50:00,67.3,56.4,29.20,SSE,154,2.0,0.0,68,0.00,CLR,,0.00,WeatherDisplay:10.37,2013-08-20 07:50:00,
2013-08-20 02:51:00,67.3,56.4,29.20,South,180,2.6,2.6,68,0.00,CLR,,0.00,WeatherDisplay:10.37,2013-08-20 07:51:00,
2013-08-20 02:52:00,67.3,56.8,29.20,South,180,4.6,4.6,69,0.00,CLR,,0.00,WeatherDisplay:10.37,2013-08-20 07:52:00,
2013-08-20 02:55:00,67.3,56.8,29.20,SSE,158,4.6,4.6,69,0.00,CLR,,0.00,WeatherDisplay:10.37,2013-08-20 07:55:00,
2013-08-20 02:57:00,67.3,56.8,29.18,South,180,6.9,6.9,69,0.00,CLR,,0.00,WeatherDisplay:10.37,2013-08-20 07:57:00,
2013-08-20 02:59:00,67.3,56.8,29.18,SE,135,4.7,4.7,69,0.00,CLR,,0.00,WeatherDisplay:10.37,2013-08-20 07:59:00,
2013-08-20 03:00:00,67.1,56.6,29.18,SSE,158,4.6,4.6,69,0.00,CLR,,0.00,WeatherDisplay:10.37,2013-08-20 08:00:00,
2013-08-20 03:02:00,67.1,56.6,29.18,South,180,4.6,4.6,69,0.00,CLR,,0.00,WeatherDisplay:10.37,2013-08-20 08:02:00,
2013-08-20 03:03:00,67.1,56.6,29.18,SSE,158,3.5,3.5,69,0.00,CLR,,0.00,WeatherDisplay:10.37,2013-08-20 08:03:00,
2013-08-20 03:05:00,67.1,56.6,29.18,South,180,4.6,4.6,69,0.00,CLR,,0.00,WeatherDisplay:10.37,2013-08-20 08:05:00,
2013-08-20 03:06:00,67.1,56.6,29.18,South,180,5.8,5.8,69,0.00,CLR,,0.00,WeatherDisplay:10.37,2013-08-20 08:06:00,
2013-08-20 03:07:00,67.1,56.6,29.18,SSE,158,5.8,5.8,69,0.00,CLR,,0.00,WeatherDisplay:10.37,2013-08-20 08:07:00,
2013-08-20 03:09:00,67.1,56.6,29.18,SSE,158,4.6,4.6,69,0.00,CLR,,0.00,WeatherDisplay:10.37,2013-08-20 08:09:00,
2013-08-20 03:12:00,67.1,56.6,29.18,SSE,158,3.5,3.5,69,0.00,CLR,,0.00,WeatherDisplay:10.37,2013-08-20 08:12:00,
2013-08-20 03:13:00,67.1,56.6,29.18,SSE,158,3.5,3.5,69,0.00,CLR,,0.00,WeatherDisplay:10.37,2013-08-20 08:13:00,
2013-08-20 03:14:00,67.1,56.6,29.18,South,180,3.5,3.5,69,0.00,CLR,,0.00,WeatherDisplay:10.37,2013-08-20 08:14:00,
2013-08-20 03:16:00,67.1,56.6,29.18,SSE,158,4.6,4.6,69,0.00,CLR,,0.00,WeatherDisplay:10.37,2013-08-20 08:16:00,
2013-08-20 03:18:00,67.1,56.6,29.18,SE,135,3.6,3.6,69,0.00,CLR,,0.00,WeatherDisplay:10.37,2013-08-20 08:18:00,
2013-08-20 03:19:00,67.1,56.6,29.18,SE,135,3.6,3.6,69,0.00,CLR,,0.00,WeatherDisplay:10.37,2013-08-20 08:19:00,
2013-08-20 03:20:00,66.9,56.4,29.18,South,180,3.5,3.5,69,0.00,CLR,,0.00,WeatherDisplay:10.37,2013-08-20 08:20:00,
2013-08-20 03:24:00,66.9,56.8,29.18,SSE,158,4.6,4.6,70,0.00,CLR,,0.00,WeatherDisplay:10.37,2013-08-20 08:24:00,
2013-08-20 03:25:00,66.9,56.4,29.18,South,180,4.9,4.9,69,0.00,CLR,,0.00,WeatherDisplay:10.37,2013-08-20 08:25:00,
2013-08-20 03:26:00,66.9,56.4,29.20,SSE,158,4.6,4.6,69,0.00,CLR,,0.00,WeatherDisplay:10.37,2013-08-20 08:26:00,
2013-08-20 03:27:00,66.9,56.8,29.20,SSE,158,4.6,4.6,70,0.00,CLR,,0.00,WeatherDisplay:10.37,2013-08-20 08:27:00,
2013-08-20 03:28:00,66.9,56.8,29.20,SSE,158,3.6,3.6,70,0.00,CLR,,0.00,WeatherDisplay:10.37,2013-08-20 08:28:00,
2013-08-20 03:29:00,66.9,56.8,29.20,SSE,158,3.5,3.5,70,0.00,CLR,,0.00,WeatherDisplay:10.37,2013-08-20 08:29:00,
2013-08-20 03:32:00,66.9,56.8,29.20,SSE,158,3.8,3.8,70,0.00,CLR,,0.00,WeatherDisplay:10.37,2013-08-20 08:32:00,
2013-08-20 03:33:00,66.9,56.8,29.20,SSE,158,3.5,3.5,70,0.00,CLR,,0.00,WeatherDisplay:10.37,2013-08-20 08:33:00,
2013-08-20 03:35:00,66.9,56.8,29.20,SSE,161,2.0,0.0,70,0.00,CLR,,0.00,WeatherDisplay:10.37,2013-08-20 08:35:00,
2013-08-20 03:40:00,66.7,56.6,29.20,SE,135,4.6,4.6,70,0.00,CLR,,0.00,WeatherDisplay:10.37,2013-08-20 08:40:00,
2013-08-20 03:41:00,66.7,56.6,29.18,SE,135,3.5,3.5,70,0.00,CLR,,0.00,WeatherDisplay:10.37,2013-08-20 08:41:00,
2013-08-20 03:42:00,66.7,56.6,29.18,South,180,3.6,3.6,70,0.00,CLR,,0.00,WeatherDisplay:10.37,2013-08-20 08:42:00,
2013-08-20 03:45:00,66.7,56.6,29.18,SE,135,3.5,3.5,70,0.00,CLR,,0.00,WeatherDisplay:10.37,2013-08-20 08:45:00,
2013-08-20 03:47:00,66.7,56.6,29.18,SE,135,2.6,2.6,70,0.00,CLR,,0.00,WeatherDisplay:10.37,2013-08-20 08:47:00,
2013-08-20 03:48:00,66.7,56.6,29.18,SSE,158,3.1,3.1,70,0.00,CLR,,0.00,WeatherDisplay:10.37,2013-08-20 08:48:00,
2013-08-20 03:50:00,66.7,56.6,29.18,SSE,152,2.0,0.0,70,0.00,CLR,,0.00,WeatherDisplay:10.37,2013-08-20 08:50:00,
2013-08-20 03:52:00,66.7,56.6,29.18,SSE,158,4.0,4.0,70,0.00,CLR,,0.00,WeatherDisplay:10.37,2013-08-20 08:52:00,
2013-08-20 03:53:00,66.7,56.6,29.18,South,180,4.6,4.6,70,0.00,CLR,,0.00,WeatherDisplay:10.37,2013-08-20 08:53:00,
2013-08-20 03:56:00,66.6,56.5,29.20,SSE,158,3.5,3.5,70,0.00,CLR,,0.00,WeatherDisplay:10.37,2013-08-20 08:56:00,
2013-08-20 03:58:00,66.6,56.5,29.20,SE,135,2.3,2.3,70,0.00,CLR,,0.00,WeatherDisplay:10.37,2013-08-20 08:58:00,
2013-08-20 04:01:00,66.6,56.5,29.20,SE,135,4.6,4.6,70,0.00,CLR,,0.00,WeatherDisplay:10.37,2013-08-20 09:01:00,
2013-08-20 04:03:00,66.6,56.5,29.20,SSE,158,4.6,4.6,70,0.00,CLR,,0.00,WeatherDisplay:10.37,2013-08-20 09:03:00,
2013-08-20 04:04:00,66.6,56.5,29.20,SSE,158,5.8,5.8,70,0.00,CLR,,0.00,WeatherDisplay:10.37,2013-08-20 09:04:00,
2013-08-20 04:08:00,66.6,56.9,29.20,SSE,158,2.9,2.9,71,0.00,CLR,,0.00,WeatherDisplay:10.37,2013-08-20 09:08:00,
2013-08-20 04:09:00,66.6,56.9,29.20,SSE,158,3.1,3.3,71,0.00,CLR,,0.00,WeatherDisplay:10.37,2013-08-20 09:09:00,
2013-08-20 04:10:00,66.6,56.9,29.20,SSE,158,2.0,0.0,71,0.00,CLR,,0.00,WeatherDisplay:10.37,2013-08-20 09:10:00,
2013-08-20 04:11:00,66.6,56.9,29.20,SSE,158,2.3,2.4,71,0.00,CLR,,0.00,WeatherDisplay:10.37,2013-08-20 09:11:00,
2013-08-20 04:14:00,66.6,56.5,29.20,South,180,4.3,4.3,70,0.00,CLR,,0.00,WeatherDisplay:10.37,2013-08-20 09:14:00,
2013-08-20 04:15:00,66.6,56.5,29.20,SSE,165,2.0,0.0,70,0.00,CLR,,0.00,WeatherDisplay:10.37,2013-08-20 09:15:00,
2013-08-20 04:17:00,66.4,56.7,29.20,ESE,112,2.3,2.3,71,0.00,CLR,,0.00,WeatherDisplay:10.37,2013-08-20 09:17:00,
2013-08-20 04:19:00,66.4,56.7,29.20,SE,135,5.8,5.8,71,0.00,CLR,,0.00,WeatherDisplay:10.37,2013-08-20 09:19:00,
2013-08-20 04:22:00,66.4,56.7,29.20,SSE,158,2.3,2.3,71,0.00,CLR,,0.00,WeatherDisplay:10.37,2013-08-20 09:22:00,
2013-08-20 04:23:00,66.4,56.7,29.20,South,180,2.3,2.3,71,0.00,CLR,,0.00,WeatherDisplay:10.37,2013-08-20 09:23:00,
2013-08-20 04:26:00,66.4,56.7,29.20,South,180,3.5,3.5,71,0.00,CLR,,0.00,WeatherDisplay:10.37,2013-08-20 09:26:00,
2013-08-20 04:27:00,66.4,56.7,29.20,SSE,158,4.6,4.6,71,0.00,CLR,,0.00,WeatherDisplay:10.37,2013-08-20 09:27:00,
2013-08-20 04:28:00,66.4,56.7,29.20,South,180,4.6,4.6,71,0.00,CLR,,0.00,WeatherDisplay:10.37,2013-08-20 09:28:00,
2013-08-20 04:32:00,66.4,56.7,29.20,SE,135,4.6,4.6,71,0.00,CLR,,0.00,WeatherDisplay:10.37,2013-08-20 09:32:00,
2013-08-20 04:34:00,66.4,56.7,29.20,South,180,4.6,4.6,71,0.00,CLR,,0.00,WeatherDisplay:10.37,2013-08-20 09:34:00,
2013-08-20 04:37:00,66.4,56.7,29.20,South,180,4.6,4.6,71,0.00,CLR,,0.00,WeatherDisplay:10.37,2013-08-20 09:37:00,
2013-08-20 04:39:00,66.2,56.5,29.20,SSE,158,4.7,4.7,71,0.00,CLR,,0.00,WeatherDisplay:10.37,2013-08-20 09:39:00,
2013-08-20 04:40:00,66.2,56.5,29.20,SSE,161,3.0,0.0,71,0.00,CLR,,0.00,WeatherDisplay:10.37,2013-08-20 09:40:00,
2013-08-20 04:43:00,66.2,56.5,29.20,SSE,158,3.5,3.5,71,0.00,CLR,,0.00,WeatherDisplay:10.37,2013-08-20 09:43:00,
2013-08-20 04:45:00,66.2,56.5,29.20,South,180,3.5,3.6,71,0.00,CLR,,0.00,WeatherDisplay:10.37,2013-08-20 09:45:00,
2013-08-20 04:46:00,66.2,56.5,29.20,South,180,5.8,5.8,71,0.00,CLR,,0.00,WeatherDisplay:10.37,2013-08-20 09:46:00,
2013-08-20 04:48:00,66.2,56.5,29.20,ESE,112,2.6,2.6,71,0.00,CLR,,0.00,WeatherDisplay:10.37,2013-08-20 09:48:00,
2013-08-20 04:49:00,66.2,56.5,29.20,South,180,4.6,4.6,71,0.00,CLR,,0.00,WeatherDisplay:10.37,2013-08-20 09:49:00,
2013-08-20 04:51:00,66.2,56.5,29.20,SSE,158,4.6,4.6,71,0.00,CLR,,0.00,WeatherDisplay:10.37,2013-08-20 09:51:00,
2013-08-20 04:52:00,66.2,56.5,29.20,SE,135,2.9,2.9,71,0.00,CLR,,0.00,WeatherDisplay:10.37,2013-08-20 09:52:00,
2013-08-20 04:53:00,66.2,56.5,29.20,SSE,158,5.6,5.6,71,0.00,CLR,,0.00,WeatherDisplay:10.37,2013-08-20 09:53:00,
2013-08-20 04:54:00,66.2,56.5,29.20,SSE,158,5.8,5.8,71,0.00,CLR,,0.00,WeatherDisplay:10.37,2013-08-20 09:54:00,
2013-08-20 04:57:00,66.2,56.5,29.20,SSE,158,4.6,4.6,71,0.00,CLR,,0.00,WeatherDisplay:10.37,2013-08-20 09:57:00,
2013-08-20 05:00:00,66.0,56.7,29.20,South,180,2.9,2.9,72,0.00,CLR,,0.00,WeatherDisplay:10.37,2013-08-20 10:00:00,
2013-08-20 05:02:00,66.0,56.7,29.20,South,180,4.6,4.6,72,0.00,CLR,,0.00,WeatherDisplay:10.37,2013-08-20 10:02:00,
2013-08-20 05:04:00,66.0,56.7,29.20,SSE,158,4.6,4.6,72,0.00,CLR,,0.00,WeatherDisplay:10.37,2013-08-20 10:04:00,
2013-08-20 05:05:00,66.0,56.7,29.20,SE,135,3.5,3.5,72,0.00,CLR,,0.00,WeatherDisplay:10.37,2013-08-20 10:05:00,
2013-08-20 05:07:00,66.0,56.7,29.20,SSE,158,3.5,3.5,72,0.00,CLR,,0.00,WeatherDisplay:10.37,2013-08-20 10:07:00,
2013-08-20 05:08:00,66.0,56.7,29.20,SE,135,3.5,3.5,72,0.00,CLR,,0.00,WeatherDisplay:10.37,2013-08-20 10:08:00,
2013-08-20 05:11:00,66.0,56.7,29.20,South,180,4.6,4.6,72,0.00,CLR,,0.00,WeatherDisplay:10.37,2013-08-20 10:11:00,
2013-08-20 05:12:00,66.0,56.7,29.20,SSE,158,4.6,4.6,72,0.00,CLR,,0.00,WeatherDisplay:10.37,2013-08-20 10:12:00,
2013-08-20 05:13:00,66.0,56.7,29.20,SSE,158,3.5,3.5,72,0.00,CLR,,0.00,WeatherDisplay:10.37,2013-08-20 10:13:00,
2013-08-20 05:14:00,66.0,56.7,29.20,SSE,158,3.5,3.5,72,0.00,CLR,,0.00,WeatherDisplay:10.37,2013-08-20 10:14:00,
2013-08-20 05:17:00,66.0,56.7,29.20,South,180,4.6,4.6,72,0.00,CLR,,0.00,WeatherDisplay:10.37,2013-08-20 10:17:00,
2013-08-20 05:18:00,66.0,56.7,29.20,SE,135,2.3,2.3,72,0.00,CLR,,0.00,WeatherDisplay:10.37,2013-08-20 10:18:00,
2013-08-20 05:19:00,66.0,56.7,29.20,South,180,2.3,2.3,72,0.00,CLR,,0.00,WeatherDisplay:10.37,2013-08-20 10:19:00,
2013-08-20 05:20:00,66.0,56.7,29.20,SSE,164,1.0,0.0,72,0.00,CLR,,0.00,WeatherDisplay:10.37,2013-08-20 10:20:00,
2013-08-20 05:22:00,66.0,56.7,29.20,South,180,1.4,2.0,72,0.00,CLR,,0.00,WeatherDisplay:10.37,2013-08-20 10:22:00,
2013-08-20 05:23:00,65.8,56.6,29.20,SSE,158,2.3,2.3,72,0.00,CLR,,0.00,WeatherDisplay:10.37,2013-08-20 10:23:00,
2013-08-20 05:25:00,65.8,56.6,29.20,SSE,163,2.0,0.0,72,0.00,CLR,,0.00,WeatherDisplay:10.37,2013-08-20 10:25:00,
2013-08-20 05:26:00,65.8,56.6,29.20,SSE,158,5.8,5.8,72,0.00,CLR,,0.00,WeatherDisplay:10.37,2013-08-20 10:26:00,
2013-08-20 05:27:00,65.8,56.6,29.20,SSE,158,4.6,4.6,72,0.00,CLR,,0.00,WeatherDisplay:10.37,2013-08-20 10:27:00,
2013-08-20 05:29:00,65.8,56.6,29.20,South,180,4.6,4.6,72,0.00,CLR,,0.00,WeatherDisplay:10.37,2013-08-20 10:29:00,
2013-08-20 05:30:00,65.8,56.6,29.20,South,180,4.6,4.6,72,0.00,CLR,,0.00,WeatherDisplay:10.37,2013-08-20 10:30:00,
2013-08-20 05:31:00,65.8,56.6,29.20,South,180,4.6,4.6,72,0.00,CLR,,0.00,WeatherDisplay:10.37,2013-08-20 10:31:00,
2013-08-20 05:32:00,65.8,56.6,29.20,South,180,4.6,4.6,72,0.00,CLR,,0.00,WeatherDisplay:10.37,2013-08-20 10:32:00,
2013-08-20 05:33:00,65.8,56.6,29.20,South,180,4.6,4.6,72,0.00,CLR,,0.00,WeatherDisplay:10.37,2013-08-20 10:33:00,
2013-08-20 05:35:00,65.9,56.6,29.20,SSE,168,2.0,0.0,72,0.00,CLR,,0.00,WeatherDisplay:10.37,2013-08-20 10:35:00,
2013-08-20 05:36:00,65.8,56.9,29.20,SSE,158,4.0,4.0,73,0.00,CLR,,0.00,WeatherDisplay:10.37,2013-08-20 10:36:00,
2013-08-20 05:37:00,65.8,56.9,29.20,SE,135,4.6,4.6,73,0.00,CLR,,0.00,WeatherDisplay:10.37,2013-08-20 10:37:00,
2013-08-20 05:38:00,65.8,56.9,29.20,SE,135,5.8,5.8,73,0.00,CLR,,0.00,WeatherDisplay:10.37,2013-08-20 10:38:00,
2013-08-20 05:40:00,65.8,56.9,29.20,SSE,167,2.0,0.0,73,0.00,CLR,,0.00,WeatherDisplay:10.37,2013-08-20 10:40:00,
2013-08-20 05:42:00,65.8,56.9,29.20,SE,135,4.6,4.6,73,0.00,CLR,,0.00,WeatherDisplay:10.37,2013-08-20 10:42:00,
2013-08-20 05:45:00,65.8,56.9,29.20,SSE,162,3.0,0.0,73,0.00,CLR,,0.00,WeatherDisplay:10.37,2013-08-20 10:45:00,
2013-08-20 05:47:00,65.8,56.9,29.20,South,180,4.6,4.6,73,0.00,CLR,,0.00,WeatherDisplay:10.37,2013-08-20 10:47:00,
2013-08-20 05:48:00,65.8,56.9,29.20,South,180,3.5,3.5,73,0.00,CLR,,0.00,WeatherDisplay:10.37,2013-08-20 10:48:00,
2013-08-20 05:50:00,65.8,56.9,29.20,South,180,4.6,4.6,73,0.00,CLR,,0.00,WeatherDisplay:10.37,2013-08-20 10:50:00,
2013-08-20 05:51:00,65.8,56.9,29.20,South,180,4.6,4.6,73,0.00,CLR,,0.00,WeatherDisplay:10.37,2013-08-20 10:51:00,
2013-08-20 05:53:00,65.8,56.9,29.20,SW,225,4.6,4.6,73,0.00,CLR,,0.00,WeatherDisplay:10.37,2013-08-20 10:53:00,
2013-08-20 05:55:00,65.8,56.9,29.20,SSE,158,2.9,2.9,73,0.00,CLR,,0.00,WeatherDisplay:10.37,2013-08-20 10:55:00,
2013-08-20 05:56:00,65.8,56.9,29.24,South,180,5.8,5.8,73,0.00,CLR,,0.00,WeatherDisplay:10.37,2013-08-20 10:56:00,
2013-08-20 05:57:00,65.8,56.9,29.24,SSE,158,5.8,5.8,73,0.00,CLR,,0.00,WeatherDisplay:10.37,2013-08-20 10:57:00,
2013-08-20 05:58:00,65.8,56.9,29.24,SSE,158,4.6,4.6,73,0.00,CLR,,0.00,WeatherDisplay:10.37,2013-08-20 10:58:00,
2013-08-20 06:01:00,65.8,56.9,29.24,SSW,202,4.6,4.6,73,0.00,CLR,,0.00,WeatherDisplay:10.37,2013-08-20 11:01:00,
2013-08-20 06:02:00,65.8,56.9,29.24,SSW,202,3.5,3.5,73,0.00,CLR,,0.00,WeatherDisplay:10.37,2013-08-20 11:02:00,
2013-08-20 06:03:00,65.8,56.9,29.24,South,180,3.5,3.5,73,0.00,CLR,,0.00,WeatherDisplay:10.37,2013-08-20 11:03:00,
2013-08-20 06:05:00,65.8,56.9,29.24,South,172,2.0,0.0,73,0.00,CLR,,0.00,WeatherDisplay:10.37,2013-08-20 11:05:00,
2013-08-20 06:07:00,65.8,56.9,29.24,SSE,158,3.3,3.3,73,0.00,CLR,,0.00,WeatherDisplay:10.37,2013-08-20 11:07:00,
2013-08-20 06:08:00,65.8,56.9,29.24,SE,135,3.5,3.5,73,0.00,CLR,,0.00,WeatherDisplay:10.37,2013-08-20 11:08:00,
2013-08-20 06:09:00,65.8,56.9,29.24,South,180,3.5,3.5,73,0.00,CLR,,0.00,WeatherDisplay:10.37,2013-08-20 11:09:00,
2013-08-20 06:10:00,65.8,56.9,29.24,South,175,2.0,0.0,73,0.00,CLR,,0.00,WeatherDisplay:10.37,2013-08-20 11:10:00,
2013-08-20 06:13:00,65.7,56.8,29.20,SSE,158,3.5,3.5,73,0.00,CLR,,0.00,WeatherDisplay:10.37,2013-08-20 11:13:00,
2013-08-20 06:14:00,65.7,56.8,29.20,SSE,158,3.5,3.6,73,0.00,CLR,,0.00,WeatherDisplay:10.37,2013-08-20 11:14:00,
2013-08-20 06:15:00,65.7,56.8,29.20,SSE,158,4.6,4.6,73,0.00,CLR,,0.00,WeatherDisplay:10.37,2013-08-20 11:15:00,
2013-08-20 06:18:00,65.7,56.8,29.20,SSE,158,3.5,3.5,73,0.00,CLR,,0.00,WeatherDisplay:10.37,2013-08-20 11:18:00,
2013-08-20 06:19:00,65.7,56.8,29.20,SSE,158,5.8,5.8,73,0.00,CLR,,0.00,WeatherDisplay:10.37,2013-08-20 11:19:00,
2013-08-20 06:20:00,65.7,56.8,29.20,SSE,158,3.5,3.5,73,0.00,CLR,,0.00,WeatherDisplay:10.37,2013-08-20 11:20:00,
2013-08-20 06:21:00,65.7,56.8,29.20,South,180,3.5,3.5,73,0.00,CLR,,0.00,WeatherDisplay:10.37,2013-08-20 11:21:00,
2013-08-20 06:24:00,65.7,56.8,29.20,South,180,3.5,3.5,73,0.00,CLR,,0.00,WeatherDisplay:10.37,2013-08-20 11:24:00,
2013-08-20 06:25:00,65.7,56.8,29.20,SSE,165,2.0,0.0,73,0.00,CLR,,0.00,WeatherDisplay:10.37,2013-08-20 11:25:00,
2013-08-20 06:26:00,65.7,56.8,29.20,SSE,158,3.5,3.5,73,0.00,CLR,,0.00,WeatherDisplay:10.37,2013-08-20 11:26:00,
2013-08-20 06:29:00,65.7,56.8,29.20,South,180,4.6,4.6,73,0.00,CLR,,0.00,WeatherDisplay:10.37,2013-08-20 11:29:00,
2013-08-20 06:30:00,65.7,56.8,29.20,SSE,158,4.6,4.6,73,0.00,CLR,,0.00,WeatherDisplay:10.37,2013-08-20 11:30:00,
2013-08-20 06:32:00,65.7,56.8,29.20,South,180,4.6,4.6,73,0.00,CLR,,0.00,WeatherDisplay:10.37,2013-08-20 11:32:00,
2013-08-20 06:35:00,65.7,56.8,29.20,South,180,4.6,4.6,73,0.00,CLR,,0.00,WeatherDisplay:10.37,2013-08-20 11:35:00,
2013-08-20 06:36:00,65.7,56.8,29.20,SE,135,4.6,4.6,73,0.00,CLR,,0.00,WeatherDisplay:10.37,2013-08-20 11:36:00,
2013-08-20 06:38:00,65.7,56.8,29.20,SSE,158,3.5,3.5,73,0.00,CLR,,0.00,WeatherDisplay:10.37,2013-08-20 11:38:00,
2013-08-20 06:39:00,65.8,57.3,29.20,SSE,158,3.5,0.0,74,0.00,CLR,,0.00,WeatherDisplay:10.37,2013-08-20 11:39:00,
2013-08-20 06:41:00,65.8,57.3,29.20,SSE,158,3.8,3.8,74,0.00,CLR,,0.00,WeatherDisplay:10.37,2013-08-20 11:41:00,
2013-08-20 06:42:00,65.8,57.3,29.20,SSE,158,3.5,3.5,74,0.00,CLR,,0.00,WeatherDisplay:10.37,2013-08-20 11:42:00,
2013-08-20 06:44:00,65.8,57.3,29.20,SSE,158,4.6,4.6,74,0.00,CLR,,0.00,WeatherDisplay:10.37,2013-08-20 11:44:00,
2013-08-20 06:45:00,65.8,57.3,29.20,SSE,158,3.0,0.0,74,0.00,CLR,,0.00,WeatherDisplay:10.37,2013-08-20 11:45:00,
2013-08-20 06:48:00,65.8,56.9,29.20,SSE,158,4.6,4.6,73,0.00,CLR,,0.00,WeatherDisplay:10.37,2013-08-20 11:48:00,
2013-08-20 06:50:00,65.8,56.9,29.20,SSE,158,3.8,3.8,73,0.00,CLR,,0.00,WeatherDisplay:10.37,2013-08-20 11:50:00,
2013-08-20 06:51:00,65.8,56.9,29.20,SSE,158,3.5,3.5,73,0.00,CLR,,0.00,WeatherDisplay:10.37,2013-08-20 11:51:00,
2013-08-20 06:53:00,66.0,57.1,29.20,SSE,158,3.5,3.5,73,0.00,CLR,,0.00,WeatherDisplay:10.37,2013-08-20 11:53:00,
2013-08-20 06:55:00,66.0,57.1,29.20,SSE,158,4.6,4.6,73,0.00,CLR,,0.00,WeatherDisplay:10.37,2013-08-20 11:55:00,
2013-08-20 06:56:00,66.0,57.1,29.20,SSE,158,4.6,4.6,73,0.00,CLR,,0.00,WeatherDisplay:10.37,2013-08-20 11:56:00,
2013-08-20 06:57:00,66.2,57.3,29.20,South,180,3.5,3.5,73,0.00,CLR,,0.00,WeatherDisplay:10.37,2013-08-20 11:57:00,
2013-08-20 06:58:00,66.2,57.3,29.20,SSE,158,3.6,3.6,73,0.00,CLR,,0.00,WeatherDisplay:10.37,2013-08-20 11:58:00,
2013-08-20 07:00:00,66.4,57.5,29.20,South,180,4.9,4.9,73,0.00,CLR,,0.00,WeatherDisplay:10.37,2013-08-20 12:00:00,
2013-08-20 07:03:00,66.7,58.2,29.20,South,180,4.6,4.6,74,0.00,CLR,,0.00,WeatherDisplay:10.37,2013-08-20 12:03:00,
2013-08-20 07:05:00,67.0,58.4,29.20,SSE,163,3.0,0.0,74,0.00,CLR,,0.00,WeatherDisplay:10.37,2013-08-20 12:05:00,
2013-08-20 07:07:00,67.5,58.9,29.20,South,180,5.8,5.8,74,0.00,CLR,,0.00,WeatherDisplay:10.37,2013-08-20 12:07:00,
2013-08-20 07:09:00,67.6,58.7,29.20,SSE,158,5.8,5.8,73,0.00,CLR,,0.00,WeatherDisplay:10.37,2013-08-20 12:09:00,
2013-08-20 07:10:00,67.8,58.8,29.20,SSE,158,5.8,5.8,73,0.00,CLR,,0.00,WeatherDisplay:10.37,2013-08-20 12:10:00,
2013-08-20 07:11:00,67.8,58.8,29.20,SE,135,4.6,4.6,73,0.00,CLR,,0.00,WeatherDisplay:10.37,2013-08-20 12:11:00,
2013-08-20 07:14:00,68.2,58.8,29.20,SSE,158,3.5,3.5,72,0.00,CLR,,0.00,WeatherDisplay:10.37,2013-08-20 12:14:00,
2013-08-20 07:15:00,68.2,58.8,29.20,SSE,158,3.5,3.5,72,0.00,CLR,,0.00,WeatherDisplay:10.37,2013-08-20 12:15:00,
2013-08-20 07:17:00,68.4,58.6,29.20,South,180,4.6,4.6,71,0.00,CLR,,0.00,WeatherDisplay:10.37,2013-08-20 12:17:00,
2013-08-20 07:18:00,68.4,58.6,29.20,SSE,158,3.5,3.5,71,0.00,CLR,,0.00,WeatherDisplay:10.37,2013-08-20 12:18:00,
2013-08-20 07:19:00,68.5,58.8,29.20,South,180,5.6,5.6,71,0.00,CLR,,0.00,WeatherDisplay:10.37,2013-08-20 12:19:00,
2013-08-20 07:20:00,68.5,58.8,29.20,SSE,158,6.9,6.9,71,0.00,CLR,,0.00,WeatherDisplay:10.37,2013-08-20 12:20:00,
2013-08-20 07:23:00,68.9,58.7,29.20,SSE,158,5.8,5.8,70,0.00,CLR,,0.00,WeatherDisplay:10.37,2013-08-20 12:23:00,
2013-08-20 07:24:00,68.9,58.7,29.20,South,180,5.8,5.8,70,0.00,CLR,,0.00,WeatherDisplay:10.37,2013-08-20 12:24:00,
2013-08-20 07:25:00,68.9,58.7,29.20,SSE,158,4.0,4.0,70,0.00,CLR,,0.00,WeatherDisplay:10.37,2013-08-20 12:25:00,
2013-08-20 07:26:00,69.1,58.9,29.20,SSE,158,6.9,6.9,70,0.00,CLR,,0.00,WeatherDisplay:10.37,2013-08-20 12:26:00,
2013-08-20 07:29:00,69.1,58.9,29.20,SSE,158,3.5,3.5,70,0.00,CLR,,0.00,WeatherDisplay:10.37,2013-08-20 12:29:00,
2013-08-20 07:30:00,69.3,59.1,29.20,SSE,158,3.8,3.8,70,0.00,CLR,,0.00,WeatherDisplay:10.37,2013-08-20 12:30:00,
2013-08-20 07:31:00,69.3,58.7,29.20,South,180,3.5,3.5,69,0.00,CLR,,0.00,WeatherDisplay:10.37,2013-08-20 12:31:00,
2013-08-20 07:32:00,69.4,58.8,29.20,South,180,2.4,2.4,69,0.00,CLR,,0.00,WeatherDisplay:10.37,2013-08-20 12:32:00,
2013-08-20 07:36:00,69.6,58.6,29.20,South,180,5.8,5.8,68,0.00,CLR,,0.00,WeatherDisplay:10.37,2013-08-20 12:36:00,
2013-08-20 07:37:00,69.6,58.6,29.20,SSW,202,5.8,5.8,68,0.00,CLR,,0.00,WeatherDisplay:10.37,2013-08-20 12:37:00,
2013-08-20 07:38:00,69.6,58.6,29.20,South,180,4.6,4.6,68,0.00,CLR,,0.00,WeatherDisplay:10.37,2013-08-20 12:38:00,
2013-08-20 07:40:00,69.6,58.2,29.20,SE,135,4.5,4.5,67,0.00,CLR,,0.00,WeatherDisplay:10.37,2013-08-20 12:40:00,
2013-08-20 07:41:00,69.8,58.3,29.20,SSE,158,4.6,4.6,67,0.00,CLR,,0.00,WeatherDisplay:10.37,2013-08-20 12:41:00,
2013-08-20 07:42:00,69.8,58.3,29.20,South,180,4.6,4.6,67,0.00,CLR,,0.00,WeatherDisplay:10.37,2013-08-20 12:42:00,
2013-08-20 07:45:00,70.0,58.5,29.20,South,180,3.5,3.5,67,0.00,CLR,,0.00,WeatherDisplay:10.37,2013-08-20 12:45:00,
2013-08-20 07:47:00,70.2,58.7,29.20,South,180,4.6,4.6,67,0.00,CLR,,0.00,WeatherDisplay:10.37,2013-08-20 12:47:00,
2013-08-20 07:48:00,70.2,58.7,29.20,SSE,158,4.6,4.6,67,0.00,CLR,,0.00,WeatherDisplay:10.37,2013-08-20 12:48:00,
2013-08-20 07:50:00,70.3,58.9,29.20,SSE,168,3.0,0.0,67,0.00,CLR,,0.00,WeatherDisplay:10.37,2013-08-20 12:50:00,
2013-08-20 07:53:00,70.7,58.8,29.20,SSW,202,4.6,4.6,66,0.00,CLR,,0.00,WeatherDisplay:10.37,2013-08-20 12:53:00,
2013-08-20 07:55:00,70.7,58.4,29.20,SSE,158,3.5,3.5,65,0.00,CLR,,0.00,WeatherDisplay:10.37,2013-08-20 12:55:00,
2013-08-20 07:59:00,70.9,58.1,29.20,SSW,202,5.8,5.8,64,0.00,CLR,,0.00,WeatherDisplay:10.37,2013-08-20 12:59:00,
2013-08-20 08:00:00,70.9,58.1,29.20,South,180,5.8,5.8,64,0.00,CLR,,0.00,WeatherDisplay:10.37,2013-08-20 13:00:00,
2013-08-20 08:02:00,71.1,58.7,29.20,South,180,5.8,5.8,65,0.00,CLR,,0.00,WeatherDisplay:10.37,2013-08-20 13:02:00,
2013-08-20 08:04:00,71.2,58.4,29.20,SSE,158,5.8,5.8,64,0.00,CLR,,0.00,WeatherDisplay:10.37,2013-08-20 13:04:00,
2013-08-20 08:06:00,71.2,58.4,29.20,SSW,202,2.3,2.3,64,0.00,CLR,,0.00,WeatherDisplay:10.37,2013-08-20 13:06:00,
2013-08-20 08:07:00,71.2,58.4,29.20,SSW,202,2.3,2.3,64,0.00,CLR,,0.00,WeatherDisplay:10.37,2013-08-20 13:07:00,
2013-08-20 08:08:00,71.4,58.6,29.20,ESE,112,5.4,5.4,64,0.00,CLR,,0.00,WeatherDisplay:10.37,2013-08-20 13:08:00,
2013-08-20 08:10:00,71.4,58.2,29.20,ESE,112,3.5,4.0,63,0.00,CLR,,0.00,WeatherDisplay:10.37,2013-08-20 13:10:00,
2013-08-20 08:12:00,71.6,58.3,29.20,South,180,4.0,4.0,63,0.00,CLR,,0.00,WeatherDisplay:10.37,2013-08-20 13:12:00,
2013-08-20 08:14:00,71.8,58.5,29.20,South,180,4.6,4.6,63,0.00,CLR,,0.00,WeatherDisplay:10.37,2013-08-20 13:14:00,
2013-08-20 08:15:00,71.8,58.5,29.20,SE,135,4.6,4.6,63,0.00,CLR,,0.00,WeatherDisplay:10.37,2013-08-20 13:15:00,
2013-08-20 08:16:00,71.8,58.5,29.20,SSW,202,3.6,3.6,63,0.00,CLR,,0.00,WeatherDisplay:10.37,2013-08-20 13:16:00,
2013-08-20 08:18:00,71.8,58.5,29.20,SSW,202,6.4,6.4,63,0.00,CLR,,0.00,WeatherDisplay:10.37,2013-08-20 13:18:00,
2013-08-20 08:20:00,71.8,58.5,29.20,South,172,3.0,0.0,63,0.00,CLR,,0.00,WeatherDisplay:10.37,2013-08-20 13:20:00,
2013-08-20 08:21:00,71.8,58.5,29.20,SE,135,6.7,6.7,63,0.00,CLR,,0.00,WeatherDisplay:10.37,2013-08-20 13:21:00,
2013-08-20 08:22:00,71.8,58.5,29.20,SSE,158,6.9,6.9,63,0.00,CLR,,0.00,WeatherDisplay:10.37,2013-08-20 13:22:00,
2013-08-20 08:23:00,71.8,58.5,29.20,SSW,202,6.9,6.9,63,0.00,CLR,,0.00,WeatherDisplay:10.37,2013-08-20 13:23:00,
2013-08-20 08:25:00,71.8,58.5,29.20,South,178,3.0,0.0,63,0.00,CLR,,0.00,WeatherDisplay:10.37,2013-08-20 13:25:00,
2013-08-20 08:28:00,71.8,58.5,29.24,SSW,202,5.8,5.8,63,0.00,CLR,,0.00,WeatherDisplay:10.37,2013-08-20 13:28:00,
2013-08-20 08:29:00,71.8,58.5,29.24,SSE,158,5.8,5.8,63,0.00,CLR,,0.00,WeatherDisplay:10.37,2013-08-20 13:29:00,
2013-08-20 08:30:00,71.8,58.5,29.24,South,175,3.0,0.0,63,0.00,CLR,,0.00,WeatherDisplay:10.37,2013-08-20 13:30:00,
2013-08-20 08:33:00,71.8,58.5,29.24,SSE,158,4.6,4.6,63,0.00,CLR,,0.00,WeatherDisplay:10.37,2013-08-20 13:33:00,
2013-08-20 08:35:00,71.8,58.5,29.24,SSE,165,2.0,0.0,63,0.00,CLR,,0.00,WeatherDisplay:10.37,2013-08-20 13:35:00,
2013-08-20 08:37:00,71.8,58.5,29.24,SSE,158,7.1,7.1,63,0.00,CLR,,0.00,WeatherDisplay:10.37,2013-08-20 13:37:00,
2013-08-20 08:38:00,71.8,58.5,29.24,South,180,6.9,6.9,63,0.00,CLR,,0.00,WeatherDisplay:10.37,2013-08-20 13:38:00,
2013-08-20 08:39:00,71.8,58.5,29.24,South,180,7.1,7.1,63,0.00,CLR,,0.00,WeatherDisplay:10.37,2013-08-20 13:39:00,
2013-08-20 08:40:00,71.8,58.5,29.24,SSE,167,5.0,0.0,63,0.00,CLR,,0.00,WeatherDisplay:10.37,2013-08-20 13:40:00,
2013-08-20 08:42:00,71.8,58.5,29.24,SE,135,5.8,5.8,63,0.00,CLR,,0.00,WeatherDisplay:10.37,2013-08-20 13:42:00,
2013-08-20 08:44:00,71.8,58.5,29.24,SE,135,5.8,5.8,63,0.00,CLR,,0.00,WeatherDisplay:10.37,2013-08-20 13:44:00,
2013-08-20 08:45:00,71.8,58.5,29.24,SSE,158,5.8,5.8,63,0.00,CLR,,0.00,WeatherDisplay:10.37,2013-08-20 13:45:00,
2013-08-20 08:46:00,71.8,58.5,29.24,SSE,158,6.9,6.9,63,0.00,CLR,,0.00,WeatherDisplay:10.37,2013-08-20 13:46:00,
2013-08-20 08:47:00,71.8,58.5,29.24,SE,135,4.6,4.6,63,0.00,CLR,,0.00,WeatherDisplay:10.37,2013-08-20 13:47:00,
2013-08-20 08:49:00,71.8,58.5,29.24,SSE,158,6.9,6.9,63,0.00,CLR,,0.00,WeatherDisplay:10.37,2013-08-20 13:49:00,
2013-08-20 08:52:00,75.6,57.7,29.24,South,180,4.6,4.6,54,0.00,CLR,,0.00,WeatherDisplay:10.37,2013-08-20 13:52:00,
2013-08-20 08:53:00,75.7,57.4,29.24,SE,135,4.0,4.0,53,0.00,CLR,,0.00,WeatherDisplay:10.37,2013-08-20 13:53:00,
2013-08-20 08:54:00,75.9,57.6,29.24,South,180,6.2,6.2,53,0.00,CLR,,0.00,WeatherDisplay:10.37,2013-08-20 13:54:00,
2013-08-20 08:57:00,76.3,57.9,29.20,SSE,158,5.8,5.8,53,0.00,CLR,,0.00,WeatherDisplay:10.37,2013-08-20 13:57:00,
2013-08-20 08:59:00,76.5,57.0,29.20,South,180,6.0,6.0,51,0.00,CLR,,0.00,WeatherDisplay:10.37,2013-08-20 13:59:00,
2013-08-20 09:00:00,76.5,57.0,29.20,South,169,3.0,0.0,51,0.00,CLR,,0.00,WeatherDisplay:10.37,2013-08-20 14:00:00,
2013-08-20 09:02:00,76.6,56.6,29.20,SSW,202,2.2,0.0,50,0.00,CLR,,0.00,WeatherDisplay:10.37,2013-08-20 14:02:00,
2013-08-20 09:04:00,76.6,56.6,29.20,SSW,202,3.5,4.3,50,0.00,CLR,,0.00,WeatherDisplay:10.37,2013-08-20 14:04:00,
2013-08-20 09:05:00,76.6,56.6,29.20,South,177,3.0,0.0,50,0.00,CLR,,0.00,WeatherDisplay:10.37,2013-08-20 14:05:00,
2013-08-20 09:06:00,76.6,55.5,29.20,SSW,202,6.7,6.7,48,0.00,CLR,,0.00,WeatherDisplay:10.37,2013-08-20 14:06:00,
2013-08-20 09:09:00,76.6,55.5,29.20,SW,225,3.5,3.5,48,0.00,CLR,,0.00,WeatherDisplay:10.37,2013-08-20 14:09:00,
2013-08-20 09:11:00,77.0,56.4,29.20,ESE,112,6.9,6.9,49,0.00,CLR,,0.00,WeatherDisplay:10.37,2013-08-20 14:11:00,
2013-08-20 09:12:00,77.0,55.2,29.20,South,180,5.8,5.8,47,0.00,CLR,,0.00,WeatherDisplay:10.37,2013-08-20 14:12:00,
2013-08-20 09:13:00,77.0,55.8,29.20,SSW,202,5.8,5.8,48,0.00,CLR,,0.00,WeatherDisplay:10.37,2013-08-20 14:13:00,
2013-08-20 09:16:00,77.2,54.8,29.20,SSE,158,5.8,5.8,46,0.00,CLR,,0.00,WeatherDisplay:10.37,2013-08-20 14:16:00,
2013-08-20 09:17:00,77.4,55.6,29.20,South,180,5.8,5.8,47,0.00,CLR,,0.00,WeatherDisplay:10.37,2013-08-20 14:17:00,
2013-08-20 09:19:00,77.4,55.6,29.20,South,180,2.3,2.3,47,0.00,CLR,,0.00,WeatherDisplay:10.37,2013-08-20 14:19:00,
2013-08-20 09:21:00,77.4,55.0,29.20,SSW,202,3.5,3.5,46,0.00,CLR,,0.00,WeatherDisplay:10.37,2013-08-20 14:21:00,
2013-08-20 09:22:00,77.5,55.7,29.20,South,180,5.6,5.6,47,0.00,CLR,,0.00,WeatherDisplay:10.37,2013-08-20 14:22:00,
2013-08-20 09:24:00,77.7,55.3,29.20,SSW,202,5.8,5.8,46,0.00,CLR,,0.00,WeatherDisplay:10.37,2013-08-20 14:24:00,
2013-08-20 09:25:00,77.7,55.3,29.20,SSE,158,5.8,5.8,46,0.00,CLR,,0.00,WeatherDisplay:10.37,2013-08-20 14:25:00,
2013-08-20 09:27:00,78.1,56.2,29.20,SSW,202,3.5,3.5,47,0.00,CLR,,0.00,WeatherDisplay:10.37,2013-08-20 14:27:00,
2013-08-20 09:29:00,78.3,55.8,29.20,SSW,202,2.3,2.3,46,0.00,CLR,,0.00,WeatherDisplay:10.37,2013-08-20 14:29:00,
2013-08-20 09:30:00,78.3,55.8,29.20,SSW,202,5.8,0.0,46,0.00,CLR,,0.00,WeatherDisplay:10.37,2013-08-20 14:30:00,
2013-08-20 09:31:00,78.4,56.5,29.20,South,180,6.9,6.9,47,0.00,CLR,,0.00,WeatherDisplay:10.37,2013-08-20 14:31:00,
2013-08-20 09:32:00,78.6,56.1,29.20,South,180,6.9,6.9,46,0.00,CLR,,0.00,WeatherDisplay:10.37,2013-08-20 14:32:00,
2013-08-20 09:34:00,78.6,56.1,29.20,SW,225,4.3,4.3,46,0.00,CLR,,0.00,WeatherDisplay:10.37,2013-08-20 14:34:00,
2013-08-20 09:35:00,78.6,55.5,29.20,SSW,202,1.1,2.6,45,0.00,CLR,,0.00,WeatherDisplay:10.37,2013-08-20 14:35:00,
2013-08-20 09:37:00,78.8,55.7,29.20,SSW,202,4.6,4.6,45,0.00,CLR,,0.00,WeatherDisplay:10.37,2013-08-20 14:37:00,
2013-08-20 09:40:00,79.0,55.2,29.20,SSW,202,2.3,2.3,44,0.00,CLR,,0.00,WeatherDisplay:10.37,2013-08-20 14:40:00,
2013-08-20 09:43:00,79.2,55.4,29.24,South,180,2.3,2.3,44,0.00,CLR,,0.00,WeatherDisplay:10.37,2013-08-20 14:43:00,
2013-08-20 09:45:00,79.2,54.7,29.24,SSW,202,2.3,2.3,43,0.00,CLR,,0.00,WeatherDisplay:10.37,2013-08-20 14:45:00,
2013-08-20 09:50:00,79.7,55.9,29.24,South,187,3.0,0.0,44,0.00,CLR,,0.00,WeatherDisplay:10.37,2013-08-20 14:50:00,
2013-08-20 09:52:00,79.9,55.4,29.24,SSE,158,4.6,4.6,43,0.00,CLR,,0.00,WeatherDisplay:10.37,2013-08-20 14:52:00,
2013-08-20 09:55:00,80.4,55.8,29.24,South,170,6.0,0.0,43,0.00,CLR,,0.00,WeatherDisplay:10.37,2013-08-20 14:55:00,
2013-08-20 09:57:00,80.6,56.0,29.24,SSE,158,9.2,9.2,43,0.00,CLR,,0.00,WeatherDisplay:10.37,2013-08-20 14:57:00,
2013-08-20 10:00:00,80.7,56.2,29.24,SSE,168,3.0,0.0,43,0.00,CLR,,0.00,WeatherDisplay:10.37,2013-08-20 15:00:00,
2013-08-20 10:01:00,81.0,55.0,29.24,SSE,158,6.9,6.9,41,0.00,CLR,,0.00,WeatherDisplay:10.37,2013-08-20 15:01:00,
2013-08-20 10:02:00,81.0,55.0,29.24,SSE,158,6.9,6.9,41,0.00,CLR,,0.00,WeatherDisplay:10.37,2013-08-20 15:02:00,
2013-08-20 10:04:00,81.1,55.2,29.24,SSE,158,5.8,5.8,41,0.00,CLR,,0.00,WeatherDisplay:10.37,2013-08-20 15:04:00,
2013-08-20 10:06:00,81.1,55.2,29.24,SW,225,5.8,5.8,41,0.00,CLR,,0.00,WeatherDisplay:10.37,2013-08-20 15:06:00,
2013-08-20 10:07:00,81.1,55.2,29.24,SSW,202,5.8,5.8,41,0.00,CLR,,0.00,WeatherDisplay:10.37,2013-08-20 15:07:00,
2013-08-20 10:08:00,81.1,54.5,29.24,SSW,202,5.8,5.8,40,0.00,CLR,,0.00,WeatherDisplay:10.37,2013-08-20 15:08:00,
2013-08-20 10:10:00,81.3,55.3,29.24,South,177,1.0,0.0,41,0.00,CLR,,0.00,WeatherDisplay:10.37,2013-08-20 15:10:00,
2013-08-20 10:11:00,81.3,55.4,29.24,SSW,202,3.5,3.5,41,0.00,CLR,,0.00,WeatherDisplay:10.37,2013-08-20 15:11:00,
2013-08-20 10:12:00,81.3,55.4,29.24,SSW,202,3.5,3.5,41,0.00,CLR,,0.00,WeatherDisplay:10.37,2013-08-20 15:12:00,
2013-08-20 10:13:00,81.5,54.8,29.24,SSE,158,6.0,6.0,40,0.00,CLR,,0.00,WeatherDisplay:10.37,2013-08-20 15:13:00,
2013-08-20 10:16:00,81.7,55.7,29.24,South,180,3.5,3.5,41,0.00,CLR,,0.00,WeatherDisplay:10.37,2013-08-20 15:16:00,
2013-08-20 10:19:00,81.7,55.0,29.24,SSW,202,6.9,6.9,40,0.00,CLR,,0.00,WeatherDisplay:10.37,2013-08-20 15:19:00,
2013-08-20 10:20:00,81.7,55.0,29.24,ESE,112,6.9,6.9,40,0.00,CLR,,0.00,WeatherDisplay:10.37,2013-08-20 15:20:00,
2013-08-20 10:23:00,81.7,55.0,29.24,South,180,4.7,4.7,40,0.00,CLR,,0.00,WeatherDisplay:10.37,2013-08-20 15:23:00,
2013-08-20 10:25:00,81.7,55.0,29.24,South,180,4.6,4.6,40,0.00,CLR,,0.00,WeatherDisplay:10.37,2013-08-20 15:25:00,
2013-08-20 10:26:00,81.7,55.0,29.24,ESE,112,4.6,4.6,40,0.00,CLR,,0.00,WeatherDisplay:10.37,2013-08-20 15:26:00,
2013-08-20 10:29:00,82.2,54.8,29.24,SSW,202,4.9,4.9,39,0.00,CLR,,0.00,WeatherDisplay:10.37,2013-08-20 15:29:00,
2013-08-20 10:30:00,82.3,54.9,29.24,SSE,168,2.0,0.0,39,0.00,CLR,,0.00,WeatherDisplay:10.37,2013-08-20 15:30:00,
2013-08-20 10:31:00,82.4,55.0,29.24,SSW,202,2.3,2.3,39,0.00,CLR,,0.00,WeatherDisplay:10.37,2013-08-20 15:31:00,
2013-08-20 10:32:00,82.6,54.4,29.24,SSE,158,2.3,2.3,38,0.00,CLR,,0.00,WeatherDisplay:10.37,2013-08-20 15:32:00,
2013-08-20 10:34:00,82.6,54.4,29.24,South,180,5.8,5.8,38,0.00,CLR,,0.00,WeatherDisplay:10.37,2013-08-20 15:34:00,
2013-08-20 10:35:00,82.6,55.1,29.24,South,180,5.8,5.8,39,0.00,CLR,,0.00,WeatherDisplay:10.37,2013-08-20 15:35:00,
2013-08-20 10:36:00,82.6,55.1,29.24,SSE,158,4.6,4.6,39,0.00,CLR,,0.00,WeatherDisplay:10.37,2013-08-20 15:36:00,
2013-08-20 10:37:00,82.8,55.3,29.24,SE,135,4.6,0.0,39,0.00,CLR,,0.00,WeatherDisplay:10.37,2013-08-20 15:37:00,
2013-08-20 10:39:00,82.9,54.7,29.24,ESE,112,5.8,5.8,38,0.00,CLR,,0.00,WeatherDisplay:10.37,2013-08-20 15:39:00,
2013-08-20 10:40:00,82.9,54.7,29.24,SSE,158,5.8,5.8,38,0.00,CLR,,0.00,WeatherDisplay:10.37,2013-08-20 15:40:00,
2013-08-20 10:42:00,83.1,55.6,29.26,South,180,5.8,5.8,39,0.00,CLR,,0.00,WeatherDisplay:10.37,2013-08-20 15:42:00,
2013-08-20 10:45:00,83.5,55.2,29.26,South,180,9.2,9.2,38,0.00,CLR,,0.00,WeatherDisplay:10.37,2013-08-20 15:45:00,
2013-08-20 10:46:00,83.5,55.2,29.26,SSE,158,9.2,9.2,38,0.00,CLR,,0.00,WeatherDisplay:10.37,2013-08-20 15:46:00,
2013-08-20 10:47:00,83.5,54.5,29.26,SE,135,8.1,8.1,37,0.00,CLR,,0.00,WeatherDisplay:10.37,2013-08-20 15:47:00,
2013-08-20 10:51:00,83.7,54.6,29.26,South,180,6.9,6.9,37,0.00,CLR,,0.00,WeatherDisplay:10.37,2013-08-20 15:51:00,
2013-08-20 10:52:00,83.7,55.4,29.26,South,180,4.6,4.6,38,0.00,CLR,,0.00,WeatherDisplay:10.37,2013-08-20 15:52:00,
2013-08-20 10:56:00,83.7,53.1,29.26,South,180,6.2,6.2,35,0.00,CLR,,0.00,WeatherDisplay:10.37,2013-08-20 15:56:00,
2013-08-20 10:57:00,83.8,54.0,29.26,South,180,5.8,5.8,36,0.00,CLR,,0.00,WeatherDisplay:10.37,2013-08-20 15:57:00,
2013-08-20 10:58:00,83.7,53.1,29.26,SSE,158,5.8,5.8,35,0.00,CLR,,0.00,WeatherDisplay:10.37,2013-08-20 15:58:00,
2013-08-20 10:59:00,83.8,54.0,29.26,SSW,202,4.6,4.6,36,0.00,CLR,,0.00,WeatherDisplay:10.37,2013-08-20 15:59:00,
2013-08-20 11:02:00,84.0,54.9,29.26,ESE,112,5.8,5.8,37,0.00,CLR,,0.00,WeatherDisplay:10.37,2013-08-20 16:02:00,
2013-08-20 11:03:00,84.0,54.9,29.26,SSE,158,2.3,2.3,37,0.00,CLR,,0.00,WeatherDisplay:10.37,2013-08-20 16:03:00,
2013-08-20 11:04:00,84.2,54.4,29.26,SSE,158,5.4,5.4,36,0.00,CLR,,0.00,WeatherDisplay:10.37,2013-08-20 16:04:00,
2013-08-20 11:05:00,84.2,54.4,29.26,SSW,202,3.6,4.3,36,0.00,CLR,,0.00,WeatherDisplay:10.37,2013-08-20 16:05:00,
2013-08-20 11:07:00,84.4,54.5,29.26,South,180,6.9,6.9,36,0.00,CLR,,0.00,WeatherDisplay:10.37,2013-08-20 16:07:00,
2013-08-20 11:09:00,84.6,54.7,29.26,South,180,6.0,6.0,36,0.00,CLR,,0.00,WeatherDisplay:10.37,2013-08-20 16:09:00,
2013-08-20 11:10:00,84.6,54.7,29.26,South,180,5.8,5.8,36,0.00,CLR,,0.00,WeatherDisplay:10.37,2013-08-20 16:10:00,
2013-08-20 11:11:00,84.6,54.7,29.24,South,180,5.8,5.8,36,0.00,CLR,,0.00,WeatherDisplay:10.37,2013-08-20 16:11:00,
2013-08-20 11:12:00,84.6,53.9,29.24,South,180,2.9,0.0,35,0.00,CLR,,0.00,WeatherDisplay:10.37,2013-08-20 16:12:00,
2013-08-20 11:15:00,84.7,54.1,29.24,South,180,3.0,0.0,35,0.00,CLR,,0.00,WeatherDisplay:10.37,2013-08-20 16:15:00,
2013-08-20 11:17:00,85.1,54.4,29.24,SSE,158,5.8,5.8,35,0.00,CLR,,0.00,WeatherDisplay:10.37,2013-08-20 16:17:00,
2013-08-20 11:19:00,85.5,54.7,29.24,SSE,158,5.8,5.8,35,0.00,CLR,,0.00,WeatherDisplay:10.37,2013-08-20 16:19:00,
2013-08-20 11:20:00,85.3,53.7,29.24,SSW,202,5.8,5.8,34,0.00,CLR,,0.00,WeatherDisplay:10.37,2013-08-20 16:20:00,
2013-08-20 11:22:00,85.1,52.8,29.24,SSW,202,2.3,2.3,33,0.00,CLR,,0.00,WeatherDisplay:10.37,2013-08-20 16:22:00,
2013-08-20 11:23:00,85.3,53.7,29.24,SSW,202,3.5,3.5,34,0.00,CLR,,0.00,WeatherDisplay:10.37,2013-08-20 16:23:00,
2013-08-20 11:25:00,85.3,52.9,29.24,South,182,1.0,0.0,33,0.00,CLR,,0.00,WeatherDisplay:10.37,2013-08-20 16:25:00,
2013-08-20 11:28:00,85.5,53.9,29.24,South,180,5.8,5.8,34,0.00,CLR,,0.00,WeatherDisplay:10.37,2013-08-20 16:28:00,
2013-08-20 11:30:00,85.6,53.2,29.24,South,185,2.0,0.0,33,0.00,CLR,,0.00,WeatherDisplay:10.37,2013-08-20 16:30:00,
2013-08-20 11:31:00,85.8,53.4,29.24,SSW,202,5.8,5.8,33,0.00,CLR,,0.00,WeatherDisplay:10.37,2013-08-20 16:31:00,
2013-08-20 11:34:00,86.0,53.5,29.24,SSW,202,8.1,8.1,33,0.00,CLR,,0.00,WeatherDisplay:10.37,2013-08-20 16:34:00,
2013-08-20 11:35:00,86.0,52.7,29.24,SSW,202,4.6,4.6,32,0.00,CLR,,0.00,WeatherDisplay:10.37,2013-08-20 16:35:00,
2013-08-20 11:38:00,85.8,51.7,29.24,SW,225,4.6,4.6,31,0.00,CLR,,0.00,WeatherDisplay:10.37,2013-08-20 16:38:00,
2013-08-20 11:39:00,85.8,52.5,29.24,SSW,202,3.5,3.5,32,0.00,CLR,,0.00,WeatherDisplay:10.37,2013-08-20 16:39:00,
2013-08-20 11:40:00,86.0,52.7,29.24,ESE,112,9.2,9.2,32,0.00,CLR,,0.00,WeatherDisplay:10.37,2013-08-20 16:40:00,
2013-08-20 11:42:00,85.8,51.7,29.24,SSE,158,5.8,5.8,31,0.00,CLR,,0.00,WeatherDisplay:10.37,2013-08-20 16:42:00,
2013-08-20 11:43:00,85.8,52.5,29.24,SSE,158,5.8,5.8,32,0.00,CLR,,0.00,WeatherDisplay:10.37,2013-08-20 16:43:00,
2013-08-20 11:44:00,86.0,52.7,29.24,SSE,158,6.9,6.9,32,0.00,CLR,,0.00,WeatherDisplay:10.37,2013-08-20 16:44:00,
2013-08-20 11:47:00,86.4,52.2,29.24,East,90,4.9,4.9,31,0.00,CLR,,0.00,WeatherDisplay:10.37,2013-08-20 16:47:00,
2013-08-20 11:48:00,86.4,52.2,29.24,SE,135,3.8,4.0,31,0.00,CLR,,0.00,WeatherDisplay:10.37,2013-08-20 16:48:00,
2013-08-20 11:49:00,86.4,51.3,29.24,SE,135,10.4,10.4,30,0.00,CLR,,0.00,WeatherDisplay:10.37,2013-08-20 16:49:00,
2013-08-20 11:50:00,86.4,51.3,29.24,East,90,8.1,8.1,30,0.00,CLR,,0.00,WeatherDisplay:10.37,2013-08-20 16:50:00,
2013-08-20 11:52:00,86.2,51.1,29.24,South,180,2.3,2.3,30,0.00,CLR,,0.00,WeatherDisplay:10.37,2013-08-20 16:52:00,
2013-08-20 11:53:00,86.2,51.1,29.24,SSE,158,3.5,3.5,30,0.00,CLR,,0.00,WeatherDisplay:10.37,2013-08-20 16:53:00,
2013-08-20 11:54:00,86.4,52.2,29.24,SSW,202,4.6,4.9,31,0.00,CLR,,0.00,WeatherDisplay:10.37,2013-08-20 16:54:00,
2013-08-20 11:55:00,86.4,52.2,29.24,SSE,166,5.0,0.0,31,0.00,CLR,,0.00,WeatherDisplay:10.37,2013-08-20 16:55:00,
2013-08-20 12:00:00,86.7,52.5,29.20,South,179,3.0,0.0,31,0.00,CLR,,0.00,WeatherDisplay:10.37,2013-08-20 17:00:00,
2013-08-20 12:01:00,86.7,52.5,29.20,SSE,158,11.5,11.5,31,0.00,CLR,,0.00,WeatherDisplay:10.37,2013-08-20 17:01:00,
2013-08-20 12:02:00,86.9,52.6,29.20,SSE,158,6.9,6.9,31,0.00,CLR,,0.00,WeatherDisplay:10.37,2013-08-20 17:02:00,
2013-08-20 12:03:00,86.9,52.6,29.20,NNW,338,5.8,5.8,31,0.00,CLR,,0.00,WeatherDisplay:10.37,2013-08-20 17:03:00,
2013-08-20 12:04:00,86.9,52.6,29.20,SSE,158,10.4,10.4,31,0.00,CLR,,0.00,WeatherDisplay:10.37,2013-08-20 17:04:00,
2013-08-20 12:05:00,86.9,52.6,29.20,SSE,168,5.0,0.0,31,0.00,CLR,,0.00,WeatherDisplay:10.37,2013-08-20 17:05:00,
2013-08-20 12:07:00,87.1,52.8,29.20,WSW,248,2.3,2.3,31,0.00,CLR,,0.00,WeatherDisplay:10.37,2013-08-20 17:07:00,
2013-08-20 12:09:00,86.9,51.7,29.20,South,180,2.3,2.3,30,0.00,CLR,,0.00,WeatherDisplay:10.37,2013-08-20 17:09:00,
2013-08-20 12:10:00,87.0,52.7,29.20,South,184,1.0,0.0,31,0.00,CLR,,0.00,WeatherDisplay:10.37,2013-08-20 17:10:00,
2013-08-20 12:11:00,87.1,51.9,29.24,South,180,6.9,6.9,30,0.00,CLR,,0.00,WeatherDisplay:10.37,2013-08-20 17:11:00,
2013-08-20 12:15:00,87.1,51.0,29.24,SSW,209,2.0,0.0,29,0.00,CLR,,0.00,WeatherDisplay:10.37,2013-08-20 17:15:00,
2013-08-20 12:16:00,87.1,51.9,29.24,South,180,2.3,0.0,30,0.00,CLR,,0.00,WeatherDisplay:10.37,2013-08-20 17:16:00,
2013-08-20 12:17:00,86.7,50.7,29.24,SSW,202,2.3,2.3,29,0.00,CLR,,0.00,WeatherDisplay:10.37,2013-08-20 17:17:00,
2013-08-20 12:20:00,86.7,50.7,29.24,South,180,4.6,4.6,29,0.00,CLR,,0.00,WeatherDisplay:10.37,2013-08-20 17:20:00,
2013-08-20 12:21:00,86.7,50.7,29.24,South,180,4.6,4.6,29,0.00,CLR,,0.00,WeatherDisplay:10.37,2013-08-20 17:21:00,
2013-08-20 12:23:00,86.7,50.7,29.24,South,180,5.8,5.8,29,0.00,CLR,,0.00,WeatherDisplay:10.37,2013-08-20 17:23:00,
2013-08-20 12:26:00,86.9,50.8,29.20,West,270,2.6,0.0,29,0.00,CLR,,0.00,WeatherDisplay:10.37,2013-08-20 17:26:00,
2013-08-20 12:27:00,86.9,50.8,29.20,West,270,2.3,2.3,29,0.00,CLR,,0.00,WeatherDisplay:10.37,2013-08-20 17:27:00,
2013-08-20 12:30:00,86.9,49.9,29.20,West,270,5.8,5.8,28,0.00,CLR,,0.00,WeatherDisplay:10.37,2013-08-20 17:30:00,
2013-08-20 12:32:00,87.1,51.0,29.20,SSW,202,5.8,5.8,29,0.00,CLR,,0.00,WeatherDisplay:10.37,2013-08-20 17:32:00,
2013-08-20 12:33:00,87.1,51.0,29.20,South,180,9.2,9.2,29,0.00,CLR,,0.00,WeatherDisplay:10.37,2013-08-20 17:33:00,
2013-08-20 12:35:00,87.4,51.2,29.20,South,189,5.0,0.0,29,0.00,CLR,,0.00,WeatherDisplay:10.37,2013-08-20 17:35:00,
2013-08-20 12:38:00,87.1,51.0,29.20,South,180,10.4,10.4,29,0.00,CLR,,0.00,WeatherDisplay:10.37,2013-08-20 17:38:00,
2013-08-20 12:39:00,87.1,50.0,29.20,SSE,158,10.4,10.4,28,0.00,CLR,,0.00,WeatherDisplay:10.37,2013-08-20 17:39:00,
2013-08-20 12:40:00,87.1,50.0,29.20,South,181,5.0,0.0,28,0.00,CLR,,0.00,WeatherDisplay:10.37,2013-08-20 17:40:00,
2013-08-20 12:44:00,87.6,51.4,29.20,WSW,248,6.9,6.9,29,0.00,CLR,,0.00,WeatherDisplay:10.37,2013-08-20 17:44:00,
2013-08-20 12:46:00,87.6,51.4,29.20,SSE,158,3.5,3.5,29,0.00,CLR,,0.00,WeatherDisplay:10.37,2013-08-20 17:46:00,
2013-08-20 12:47:00,87.8,50.6,29.20,SW,225,7.4,7.4,28,0.00,CLR,,0.00,WeatherDisplay:10.37,2013-08-20 17:47:00,
2013-08-20 12:48:00,87.8,50.6,29.20,SE,135,6.9,6.9,28,0.00,CLR,,0.00,WeatherDisplay:10.37,2013-08-20 17:48:00,
2013-08-20 12:49:00,87.8,50.6,29.20,SSW,202,8.1,8.1,28,0.00,CLR,,0.00,WeatherDisplay:10.37,2013-08-20 17:49:00,
2013-08-20 12:52:00,88.0,50.8,29.20,South,180,4.6,4.6,28,0.00,CLR,,0.00,WeatherDisplay:10.37,2013-08-20 17:52:00,
2013-08-20 12:53:00,88.2,50.9,29.20,SE,135,9.2,9.2,28,0.00,CLR,,0.00,WeatherDisplay:10.37,2013-08-20 17:53:00,
2013-08-20 12:57:00,88.5,51.3,29.20,SSE,158,3.5,3.5,28,0.00,CLR,,0.00,WeatherDisplay:10.37,2013-08-20 17:57:00,
2013-08-20 12:58:00,88.5,51.3,29.20,SSE,158,5.8,5.8,28,0.00,CLR,,0.00,WeatherDisplay:10.37,2013-08-20 17:58:00,
2013-08-20 12:59:00,88.5,51.3,29.20,SSW,202,5.8,5.8,28,0.00,CLR,,0.00,WeatherDisplay:10.37,2013-08-20 17:59:00,
2013-08-20 13:01:00,88.3,51.1,29.20,SSW,202,8.1,8.1,28,0.00,CLR,,0.00,WeatherDisplay:10.37,2013-08-20 18:01:00,
2013-08-20 13:04:00,88.2,50.9,29.20,SSE,158,6.9,6.9,28,0.00,CLR,,0.00,WeatherDisplay:10.37,2013-08-20 18:04:00,
2013-08-20 13:05:00,88.2,50.9,29.20,South,175,5.0,0.0,28,0.00,CLR,,0.00,WeatherDisplay:10.37,2013-08-20 18:05:00,
2013-08-20 13:06:00,88.2,50.9,29.20,SSE,158,6.9,6.9,28,0.00,CLR,,0.00,WeatherDisplay:10.37,2013-08-20 18:06:00,
2013-08-20 13:09:00,88.3,51.1,29.20,SSE,158,9.2,9.2,28,0.00,CLR,,0.00,WeatherDisplay:10.37,2013-08-20 18:09:00,
2013-08-20 13:10:00,88.3,51.0,29.20,South,184,3.0,0.0,28,0.00,CLR,,0.00,WeatherDisplay:10.37,2013-08-20 18:10:00,
2013-08-20 13:11:00,88.3,51.1,29.20,SW,225,9.2,9.2,28,0.00,CLR,,0.00,WeatherDisplay:10.37,2013-08-20 18:11:00,
2013-08-20 13:12:00,88.3,51.1,29.20,SSW,202,3.5,3.5,28,0.00,CLR,,0.00,WeatherDisplay:10.37,2013-08-20 18:12:00,
2013-08-20 13:15:00,88.3,50.1,29.20,SSW,200,2.0,0.0,27,0.00,CLR,,0.00,WeatherDisplay:10.37,2013-08-20 18:15:00,
2013-08-20 13:16:00,88.3,50.1,29.20,South,180,3.5,3.5,27,0.00,CLR,,0.00,WeatherDisplay:10.37,2013-08-20 18:16:00,
2013-08-20 13:17:00,88.2,50.0,29.20,South,180,6.2,6.2,27,0.00,CLR,,0.00,WeatherDisplay:10.37,2013-08-20 18:17:00,
2013-08-20 13:18:00,88.3,51.1,29.20,South,180,5.8,5.8,28,0.00,CLR,,0.00,WeatherDisplay:10.37,2013-08-20 18:18:00,
2013-08-20 13:20:00,88.3,51.1,29.20,SSW,195,5.0,0.0,28,0.00,CLR,,0.00,WeatherDisplay:10.37,2013-08-20 18:20:00,
2013-08-20 13:22:00,88.3,50.1,29.20,SSW,202,3.5,3.5,27,0.00,CLR,,0.00,WeatherDisplay:10.37,2013-08-20 18:22:00,
2013-08-20 13:24:00,88.5,51.3,29.20,South,180,9.7,9.7,28,0.00,CLR,,0.00,WeatherDisplay:10.37,2013-08-20 18:24:00,
2013-08-20 13:26:00,88.5,50.3,29.20,South,180,9.2,9.2,27,0.00,CLR,,0.00,WeatherDisplay:10.37,2013-08-20 18:26:00,
2013-08-20 13:27:00,88.5,48.2,29.20,SSE,158,5.8,5.8,25,0.00,CLR,,0.00,WeatherDisplay:10.37,2013-08-20 18:27:00,
2013-08-20 13:28:00,88.5,48.2,29.20,SSE,158,10.4,10.4,25,0.00,CLR,,0.00,WeatherDisplay:10.37,2013-08-20 18:28:00,
2013-08-20 13:30:00,88.5,48.2,29.20,South,185,5.0,0.0,25,0.00,CLR,,0.00,WeatherDisplay:10.37,2013-08-20 18:30:00,
2013-08-20 13:32:00,88.5,48.2,29.20,South,180,10.4,10.4,25,0.00,CLR,,0.00,WeatherDisplay:10.37,2013-08-20 18:32:00,
2013-08-20 13:33:00,88.5,48.2,29.20,SSE,158,8.1,8.1,25,0.00,CLR,,0.00,WeatherDisplay:10.37,2013-08-20 18:33:00,
2013-08-20 13:36:00,88.5,47.1,29.20,SSW,202,4.6,4.6,24,0.00,CLR,,0.00,WeatherDisplay:10.37,2013-08-20 18:36:00,
2013-08-20 13:38:00,88.7,48.4,29.20,SE,135,3.5,3.5,25,0.00,CLR,,0.00,WeatherDisplay:10.37,2013-08-20 18:38:00,
2013-08-20 13:39:00,88.7,47.3,29.20,South,180,5.8,5.8,24,0.00,CLR,,0.00,WeatherDisplay:10.37,2013-08-20 18:39:00,
2013-08-20 13:40:00,88.7,47.3,29.20,South,177,3.0,0.0,24,0.00,CLR,,0.00,WeatherDisplay:10.37,2013-08-20 18:40:00,
2013-08-20 13:43:00,88.7,46.1,29.20,SSE,158,9.2,9.2,23,0.00,CLR,,0.00,WeatherDisplay:10.37,2013-08-20 18:43:00,
2013-08-20 13:45:00,88.9,48.5,29.20,South,179,3.0,0.0,25,0.00,CLR,,0.00,WeatherDisplay:10.37,2013-08-20 18:45:00,
2013-08-20 13:46:00,88.7,48.4,29.20,South,180,5.8,5.8,25,0.00,CLR,,0.00,WeatherDisplay:10.37,2013-08-20 18:46:00,
2013-08-20 13:47:00,88.9,48.5,29.20,SE,135,8.1,8.1,25,0.00,CLR,,0.00,WeatherDisplay:10.37,2013-08-20 18:47:00,
2013-08-20 13:48:00,88.9,48.5,29.20,WSW,248,10.4,10.4,25,0.00,CLR,,0.00,WeatherDisplay:10.37,2013-08-20 18:48:00,
2013-08-20 13:50:00,88.7,48.4,29.20,SSW,202,5.8,5.8,25,0.00,CLR,,0.00,WeatherDisplay:10.37,2013-08-20 18:50:00,
2013-08-20 13:51:00,88.7,48.4,29.20,South,180,3.5,3.5,25,0.00,CLR,,0.00,WeatherDisplay:10.37,2013-08-20 18:51:00,
2013-08-20 13:54:00,88.7,47.3,29.20,WSW,248,6.9,6.9,24,0.00,CLR,,0.00,WeatherDisplay:10.37,2013-08-20 18:54:00,
2013-08-20 13:56:00,88.7,46.1,29.20,SSE,158,7.4,7.4,23,0.00,CLR,,0.00,WeatherDisplay:10.37,2013-08-20 18:56:00,
2013-08-20 13:59:00,88.9,46.3,29.20,SE,135,5.8,5.8,23,0.00,CLR,,0.00,WeatherDisplay:10.37,2013-08-20 18:59:00,
2013-08-20 14:00:00,88.7,46.1,29.20,WSW,248,4.6,4.6,23,0.00,CLR,,0.00,WeatherDisplay:10.37,2013-08-20 19:00:00,
2013-08-20 14:02:00,88.7,46.1,29.20,SW,225,5.8,5.8,23,0.00,CLR,,0.00,WeatherDisplay:10.37,2013-08-20 19:02:00,
2013-08-20 14:04:00,88.5,44.8,29.20,SSE,158,6.9,6.9,22,0.00,CLR,,0.00,WeatherDisplay:10.37,2013-08-20 19:04:00,
2013-08-20 14:05:00,88.5,44.8,29.20,SSE,158,8.1,8.1,22,0.00,CLR,,0.00,WeatherDisplay:10.37,2013-08-20 19:05:00,
2013-08-20 14:07:00,88.5,46.0,29.20,SW,225,5.8,5.8,23,0.00,CLR,,0.00,WeatherDisplay:10.37,2013-08-20 19:07:00,
2013-08-20 14:08:00,88.7,46.1,29.20,SSE,158,3.5,3.5,23,0.00,CLR,,0.00,WeatherDisplay:10.37,2013-08-20 19:08:00,
2013-08-20 14:10:00,88.7,46.1,29.20,South,189,3.0,0.0,23,0.00,CLR,,0.00,WeatherDisplay:10.37,2013-08-20 19:10:00,
2013-08-20 14:11:00,88.9,47.4,29.20,South,180,8.1,8.1,24,0.00,CLR,,0.00,WeatherDisplay:10.37,2013-08-20 19:11:00,
2013-08-20 14:13:00,88.9,47.4,29.20,SSE,158,3.8,3.8,24,0.00,CLR,,0.00,WeatherDisplay:10.37,2013-08-20 19:13:00,
2013-08-20 14:15:00,88.3,44.7,29.20,SSE,158,3.5,3.5,22,0.00,CLR,,0.00,WeatherDisplay:10.37,2013-08-20 19:15:00,
2013-08-20 14:16:00,88.5,46.0,29.20,SSE,158,6.9,6.9,23,0.00,CLR,,0.00,WeatherDisplay:10.37,2013-08-20 19:16:00,
2013-08-20 14:17:00,88.7,46.1,29.20,SSW,202,10.4,10.4,23,0.00,CLR,,0.00,WeatherDisplay:10.37,2013-08-20 19:17:00,
2013-08-20 14:19:00,88.7,46.1,29.20,SSW,202,3.5,3.5,23,0.00,CLR,,0.00,WeatherDisplay:10.37,2013-08-20 19:19:00,
2013-08-20 14:21:00,89.1,47.6,29.20,WNW,292,10.4,10.4,24,0.00,CLR,,0.00,WeatherDisplay:10.37,2013-08-20 19:21:00,
2013-08-20 14:22:00,88.9,46.3,29.20,SW,225,10.4,10.4,23,0.00,CLR,,0.00,WeatherDisplay:10.37,2013-08-20 19:22:00,
2013-08-20 14:25:00,89.1,46.4,29.20,SSW,203,3.0,0.0,23,0.00,CLR,,0.00,WeatherDisplay:10.37,2013-08-20 19:25:00,
2013-08-20 14:27:00,89.2,45.4,29.20,SW,225,3.5,3.5,22,0.00,CLR,,0.00,WeatherDisplay:10.37,2013-08-20 19:27:00,
2013-08-20 14:28:00,89.1,44.0,29.20,SSE,158,3.5,3.5,21,0.00,CLR,,0.00,WeatherDisplay:10.37,2013-08-20 19:28:00,
2013-08-20 14:30:00,89.2,46.6,29.20,WSW,248,9.2,9.2,23,0.00,CLR,,0.00,WeatherDisplay:10.37,2013-08-20 19:30:00,
2013-08-20 14:33:00,89.2,44.2,29.20,SE,135,5.8,5.8,21,0.00,CLR,,0.00,WeatherDisplay:10.37,2013-08-20 19:33:00,
2013-08-20 14:34:00,89.2,44.2,29.20,SW,225,4.6,4.6,21,0.00,CLR,,0.00,WeatherDisplay:10.37,2013-08-20 19:34:00,
2013-08-20 14:35:00,88.9,45.1,29.20,South,180,4.6,4.6,22,0.00,CLR,,0.00,WeatherDisplay:10.37,2013-08-20 19:35:00,
2013-08-20 14:38:00,88.7,45.0,29.20,ESE,112,7.1,7.1,22,0.00,CLR,,0.00,WeatherDisplay:10.37,2013-08-20 19:38:00,
2013-08-20 14:39:00,88.7,45.0,29.20,SSE,158,6.9,6.9,22,0.00,CLR,,0.00,WeatherDisplay:10.37,2013-08-20 19:39:00,
2013-08-20 14:42:00,88.9,45.1,29.20,South,180,5.8,5.8,22,0.00,CLR,,0.00,WeatherDisplay:10.37,2013-08-20 19:42:00,
2013-08-20 14:43:00,89.1,45.3,29.20,East,90,8.1,8.1,22,0.00,CLR,,0.00,WeatherDisplay:10.37,2013-08-20 19:43:00,
2013-08-20 14:44:00,89.1,45.3,29.20,WSW,248,4.6,4.6,22,0.00,CLR,,0.00,WeatherDisplay:10.37,2013-08-20 19:44:00,
2013-08-20 14:47:00,89.1,46.4,29.20,SSW,202,2.6,2.6,23,0.00,CLR,,0.00,WeatherDisplay:10.37,2013-08-20 19:47:00,
2013-08-20 14:48:00,89.1,45.3,29.20,South,180,6.4,6.4,22,0.00,CLR,,0.00,WeatherDisplay:10.37,2013-08-20 19:48:00,
2013-08-20 14:50:00,89.1,44.0,29.20,SSW,201,5.0,0.0,21,0.00,CLR,,0.00,WeatherDisplay:10.37,2013-08-20 19:50:00,
2013-08-20 14:51:00,89.1,44.0,29.20,SW,225,5.8,5.8,21,0.00,CLR,,0.00,WeatherDisplay:10.37,2013-08-20 19:51:00,
2013-08-20 14:54:00,89.2,45.4,29.20,SSW,202,3.5,3.5,22,0.00,CLR,,0.00,WeatherDisplay:10.37,2013-08-20 19:54:00,
2013-08-20 14:55:00,89.2,45.4,29.20,SSW,206,3.0,0.0,22,0.00,CLR,,0.00,WeatherDisplay:10.37,2013-08-20 19:55:00,
2013-08-20 14:57:00,89.1,44.0,29.20,SSW,202,8.1,8.1,21,0.00,CLR,,0.00,WeatherDisplay:10.37,2013-08-20 19:57:00,
2013-08-20 14:59:00,89.2,44.2,29.20,South,180,5.8,5.8,21,0.00,CLR,,0.00,WeatherDisplay:10.37,2013-08-20 19:59:00,
2013-08-20 15:00:00,89.2,44.2,29.20,SSW,203,3.0,0.0,21,0.00,CLR,,0.00,WeatherDisplay:10.37,2013-08-20 20:00:00,
2013-08-20 15:01:00,89.1,44.0,29.20,SE,135,4.6,4.6,21,0.00,CLR,,0.00,WeatherDisplay:10.37,2013-08-20 20:01:00,
2013-08-20 15:02:00,89.2,45.4,29.20,WSW,248,4.6,4.6,22,0.00,CLR,,0.00,WeatherDisplay:10.37,2013-08-20 20:02:00,
2013-08-20 15:03:00,89.2,44.2,29.20,South,180,4.6,4.6,21,0.00,CLR,,0.00,WeatherDisplay:10.37,2013-08-20 20:03:00,
2013-08-20 15:04:00,89.2,42.9,29.20,WSW,248,5.9,5.9,20,0.00,CLR,,0.00,WeatherDisplay:10.37,2013-08-20 20:04:00,
2013-08-20 15:06:00,89.2,44.2,29.20,South,180,4.6,4.6,21,0.00,CLR,,0.00,WeatherDisplay:10.37,2013-08-20 20:06:00,
2013-08-20 15:07:00,89.2,44.2,29.20,South,180,4.6,4.6,21,0.00,CLR,,0.00,WeatherDisplay:10.37,2013-08-20 20:07:00,
2013-08-20 15:08:00,89.2,44.2,29.20,SSE,158,3.5,3.5,21,0.00,CLR,,0.00,WeatherDisplay:10.37,2013-08-20 20:08:00,
2013-08-20 15:11:00,89.8,45.9,29.20,ESE,112,5.8,5.8,22,0.00,CLR,,0.00,WeatherDisplay:10.37,2013-08-20 20:11:00,
2013-08-20 15:12:00,89.8,44.6,29.20,South,180,4.6,4.6,21,0.00,CLR,,0.00,WeatherDisplay:10.37,2013-08-20 20:12:00,
2013-08-20 15:13:00,89.8,43.4,29.20,SW,225,3.5,3.5,20,0.00,CLR,,0.00,WeatherDisplay:10.37,2013-08-20 20:13:00,
2013-08-20 15:15:00,90.0,44.8,29.20,South,181,2.0,0.0,21,0.00,CLR,,0.00,WeatherDisplay:10.37,2013-08-20 20:15:00,
2013-08-20 15:16:00,90.1,44.9,29.20,South,180,11.5,11.5,21,0.00,CLR,,0.00,WeatherDisplay:10.37,2013-08-20 20:16:00,
2013-08-20 15:18:00,90.1,46.2,29.20,South,180,7.8,7.8,22,0.00,CLR,,0.00,WeatherDisplay:10.37,2013-08-20 20:18:00,
2013-08-20 15:20:00,90.1,46.1,29.20,South,173,5.0,0.0,22,0.00,CLR,,0.00,WeatherDisplay:10.37,2013-08-20 20:20:00,
2013-08-20 15:22:00,90.1,48.5,29.20,SW,225,3.5,3.5,24,0.00,CLR,,0.00,WeatherDisplay:10.37,2013-08-20 20:22:00,
2013-08-20 15:23:00,90.1,48.5,29.20,SE,135,2.3,2.3,24,0.00,CLR,,0.00,WeatherDisplay:10.37,2013-08-20 20:23:00,
2013-08-20 15:25:00,90.1,47.3,29.20,SE,135,10.4,10.4,23,0.00,CLR,,0.00,WeatherDisplay:10.37,2013-08-20 20:25:00,
2013-08-20 15:26:00,90.1,46.2,29.20,West,270,5.8,5.8,22,0.00,CLR,,0.00,WeatherDisplay:10.37,2013-08-20 20:26:00,
2013-08-20 15:28:00,90.1,46.2,29.20,South,180,6.4,6.4,22,0.00,CLR,,0.00,WeatherDisplay:10.37,2013-08-20 20:28:00,
2013-08-20 15:29:00,90.1,46.2,29.20,SSE,158,6.9,6.9,22,0.00,CLR,,0.00,WeatherDisplay:10.37,2013-08-20 20:29:00,
2013-08-20 15:30:00,90.1,47.3,29.20,SSE,158,6.9,6.9,23,0.00,CLR,,0.00,WeatherDisplay:10.37,2013-08-20 20:30:00,
2013-08-20 15:31:00,90.1,47.3,29.20,South,180,9.2,9.2,23,0.00,CLR,,0.00,WeatherDisplay:10.37,2013-08-20 20:31:00,
2013-08-20 15:33:00,90.1,47.3,29.20,South,180,8.1,8.1,23,0.00,CLR,,0.00,WeatherDisplay:10.37,2013-08-20 20:33:00,
2013-08-20 15:34:00,90.1,47.3,29.20,SSE,158,8.1,8.1,23,0.00,CLR,,0.00,WeatherDisplay:10.37,2013-08-20 20:34:00,
2013-08-20 15:37:00,90.0,46.0,29.20,SE,135,8.1,8.1,22,0.00,CLR,,0.00,WeatherDisplay:10.37,2013-08-20 20:37:00,
2013-08-20 15:38:00,90.0,46.0,29.20,ESE,112,8.1,8.1,22,0.00,CLR,,0.00,WeatherDisplay:10.37,2013-08-20 20:38:00,
2013-08-20 15:39:00,89.8,45.9,29.20,NW,315,4.6,4.6,22,0.00,CLR,,0.00,WeatherDisplay:10.37,2013-08-20 20:39:00,
2013-08-20 15:40:00,89.8,47.0,29.20,South,180,4.3,4.3,23,0.00,CLR,,0.00,WeatherDisplay:10.37,2013-08-20 20:40:00,
2013-08-20 15:45:00,89.8,44.6,29.20,SE,142,6.0,0.0,21,0.00,CLR,,0.00,WeatherDisplay:10.37,2013-08-20 20:45:00,
2013-08-20 15:46:00,89.6,44.5,29.20,South,180,10.4,10.4,21,0.00,CLR,,0.00,WeatherDisplay:10.37,2013-08-20 20:46:00,
2013-08-20 15:47:00,89.4,45.6,29.20,SE,135,5.8,5.8,22,0.00,CLR,,0.00,WeatherDisplay:10.37,2013-08-20 20:47:00,
2013-08-20 15:51:00,89.6,45.7,29.20,East,90,2.3,2.3,22,0.00,CLR,,0.00,WeatherDisplay:10.37,2013-08-20 20:51:00,
2013-08-20 15:52:00,89.4,46.7,29.20,South,180,3.5,3.5,23,0.00,CLR,,0.00,WeatherDisplay:10.37,2013-08-20 20:52:00,
2013-08-20 15:53:00,89.2,46.6,29.20,SSW,202,3.5,3.5,23,0.00,CLR,,0.00,WeatherDisplay:10.37,2013-08-20 20:53:00,
2013-08-20 15:54:00,89.2,46.6,29.20,West,270,4.9,4.9,23,0.00,CLR,,0.00,WeatherDisplay:10.37,2013-08-20 20:54:00,
2013-08-20 15:55:00,89.6,48.0,29.20,SSW,202,4.6,4.6,24,0.00,CLR,,0.00,WeatherDisplay:10.37,2013-08-20 20:55:00,
2013-08-20 15:58:00,89.8,47.0,29.20,WSW,248,8.1,8.1,23,0.00,CLR,,0.00,WeatherDisplay:10.37,2013-08-20 20:58:00,
2013-08-20 15:59:00,89.8,47.0,29.20,SSE,158,2.3,2.3,23,0.00,CLR,,0.00,WeatherDisplay:10.37,2013-08-20 20:59:00,
2013-08-20 16:00:00,89.8,47.0,29.20,South,177,2.0,0.0,23,0.00,CLR,,0.00,WeatherDisplay:10.37,2013-08-20 21:00:00,
2013-08-20 16:01:00,89.6,46.9,29.20,SSE,158,1.1,1.4,23,0.00,CLR,,0.00,WeatherDisplay:10.37,2013-08-20 21:01:00,
2013-08-20 16:04:00,89.1,45.3,29.20,SSW,202,8.1,8.1,22,0.00,CLR,,0.00,WeatherDisplay:10.37,2013-08-20 21:04:00,
2013-08-20 16:05:00,89.1,45.3,29.20,SW,225,8.1,8.1,22,0.00,CLR,,0.00,WeatherDisplay:10.37,2013-08-20 21:05:00,
2013-08-20 16:06:00,88.9,46.3,29.20,SSE,158,6.2,6.2,23,0.00,CLR,,0.00,WeatherDisplay:10.37,2013-08-20 21:06:00,
2013-08-20 16:07:00,88.9,46.3,29.20,SSE,158,9.2,9.2,23,0.00,CLR,,0.00,WeatherDisplay:10.37,2013-08-20 21:07:00,
2013-08-20 16:09:00,88.7,46.1,29.20,SE,135,5.8,5.8,23,0.00,CLR,,0.00,WeatherDisplay:10.37,2013-08-20 21:09:00,
2013-08-20 16:11:00,88.7,46.1,29.20,South,180,4.6,4.6,23,0.00,CLR,,0.00,WeatherDisplay:10.37,2013-08-20 21:11:00,
2013-08-20 16:12:00,88.7,46.1,29.20,South,180,3.3,3.3,23,0.00,CLR,,0.00,WeatherDisplay:10.37,2013-08-20 21:12:00,
2013-08-20 16:14:00,88.7,46.1,29.20,WSW,248,4.7,4.7,23,0.00,CLR,,0.00,WeatherDisplay:10.37,2013-08-20 21:14:00,
2013-08-20 16:17:00,88.9,46.3,29.20,South,180,4.0,4.0,23,0.00,CLR,,0.00,WeatherDisplay:10.37,2013-08-20 21:17:00,
2013-08-20 16:18:00,88.9,46.3,29.20,SSW,202,6.9,6.9,23,0.00,CLR,,0.00,WeatherDisplay:10.37,2013-08-20 21:18:00,
2013-08-20 16:21:00,88.9,46.3,29.20,SSW,202,4.6,4.6,23,0.00,CLR,,0.00,WeatherDisplay:10.37,2013-08-20 21:21:00,
2013-08-20 16:23:00,88.9,45.1,29.20,East,90,6.0,6.0,22,0.00,CLR,,0.00,WeatherDisplay:10.37,2013-08-20 21:23:00,
2013-08-20 16:24:00,88.7,43.7,29.20,SSW,202,5.8,5.8,21,0.00,CLR,,0.00,WeatherDisplay:10.37,2013-08-20 21:24:00,
2013-08-20 16:25:00,88.7,43.7,29.20,SW,225,2.3,2.3,21,0.00,CLR,,0.00,WeatherDisplay:10.37,2013-08-20 21:25:00,
2013-08-20 16:27:00,88.7,43.7,29.18,SSE,158,5.8,5.8,21,0.00,CLR,,0.00,WeatherDisplay:10.37,2013-08-20 21:27:00,
2013-08-20 16:29:00,88.7,43.7,29.18,SW,225,4.6,4.6,21,0.00,CLR,,0.00,WeatherDisplay:10.37,2013-08-20 21:29:00,
2013-08-20 16:30:00,88.7,43.7,29.18,SW,225,2.3,2.3,21,0.00,CLR,,0.00,WeatherDisplay:10.37,2013-08-20 21:30:00,
2013-08-20 16:35:00,88.2,43.3,29.18,South,187,3.0,0.0,21,0.00,CLR,,0.00,WeatherDisplay:10.37,2013-08-20 21:35:00,
2013-08-20 16:36:00,88.2,44.5,29.18,SW,225,9.2,9.2,22,0.00,CLR,,0.00,WeatherDisplay:10.37,2013-08-20 21:36:00,
2013-08-20 16:38:00,88.2,44.5,29.18,South,180,4.6,4.6,22,0.00,CLR,,0.00,WeatherDisplay:10.37,2013-08-20 21:38:00,
2013-08-20 16:40:00,88.2,43.3,29.18,South,180,4.3,4.3,21,0.00,CLR,,0.00,WeatherDisplay:10.37,2013-08-20 21:40:00,
2013-08-20 16:42:00,88.2,44.5,29.15,SSE,158,3.5,3.5,22,0.00,CLR,,0.00,WeatherDisplay:10.37,2013-08-20 21:42:00,
2013-08-20 16:43:00,88.3,44.7,29.15,SSE,158,7.8,7.8,22,0.00,CLR,,0.00,WeatherDisplay:10.37,2013-08-20 21:43:00,
2013-08-20 16:45:00,88.5,46.0,29.15,SSW,202,6.9,6.9,23,0.00,CLR,,0.00,WeatherDisplay:10.37,2013-08-20 21:45:00,
2013-08-20 16:47:00,88.5,46.0,29.15,SW,225,6.4,6.4,23,0.00,CLR,,0.00,WeatherDisplay:10.37,2013-08-20 21:47:00,
2013-08-20 16:49:00,88.5,44.8,29.15,South,180,5.8,5.8,22,0.00,CLR,,0.00,WeatherDisplay:10.37,2013-08-20 21:49:00,
2013-08-20 16:50:00,88.5,44.8,29.15,South,189,2.0,0.0,22,0.00,CLR,,0.00,WeatherDisplay:10.37,2013-08-20 21:50:00,
2013-08-20 16:53:00,88.7,45.0,29.15,South,180,10.5,10.5,22,0.00,CLR,,0.00,WeatherDisplay:10.37,2013-08-20 21:53:00,
2013-08-20 16:55:00,88.7,45.0,29.15,SSW,195,5.0,0.0,22,0.00,CLR,,0.00,WeatherDisplay:10.37,2013-08-20 21:55:00,
2013-08-20 16:57:00,88.7,43.7,29.15,SSE,158,5.8,5.8,21,0.00,CLR,,0.00,WeatherDisplay:10.37,2013-08-20 21:57:00,
2013-08-20 16:58:00,88.5,43.6,29.15,SSE,158,2.3,2.3,21,0.00,CLR,,0.00,WeatherDisplay:10.37,2013-08-20 21:58:00,
2013-08-20 17:00:00,88.5,43.6,29.15,SSW,206,1.0,0.0,21,0.00,CLR,,0.00,WeatherDisplay:10.37,2013-08-20 22:00:00,
2013-08-20 17:03:00,88.3,44.7,29.15,SSE,158,5.8,5.8,22,0.00,CLR,,0.00,WeatherDisplay:10.37,2013-08-20 22:03:00,
2013-08-20 17:04:00,88.3,44.7,29.15,SE,135,2.3,2.3,22,0.00,CLR,,0.00,WeatherDisplay:10.37,2013-08-20 22:04:00,
2013-08-20 17:05:00,88.3,44.7,29.15,South,180,6.9,6.9,22,0.00,CLR,,0.00,WeatherDisplay:10.37,2013-08-20 22:05:00,
2013-08-20 17:06:00,88.3,44.7,29.15,South,180,6.9,6.9,22,0.00,CLR,,0.00,WeatherDisplay:10.37,2013-08-20 22:06:00,
2013-08-20 17:08:00,88.2,43.3,29.15,South,180,12.3,12.3,21,0.00,CLR,,0.00,WeatherDisplay:10.37,2013-08-20 22:08:00,
2013-08-20 17:09:00,88.2,43.3,29.15,West,270,12.7,12.7,21,0.00,CLR,,0.00,WeatherDisplay:10.37,2013-08-20 22:09:00,
2013-08-20 17:11:00,88.2,44.5,29.15,South,180,3.5,3.5,22,0.00,CLR,,0.00,WeatherDisplay:10.37,2013-08-20 22:11:00,
2013-08-20 17:14:00,88.2,44.5,29.15,South,180,6.9,6.9,22,0.00,CLR,,0.00,WeatherDisplay:10.37,2013-08-20 22:14:00,
2013-08-20 17:15:00,88.2,45.7,29.15,South,184,1.0,0.0,23,0.00,CLR,,0.00,WeatherDisplay:10.37,2013-08-20 22:15:00,
2013-08-20 17:16:00,88.2,45.7,29.15,South,180,2.3,2.3,23,0.00,CLR,,0.00,WeatherDisplay:10.37,2013-08-20 22:16:00,
2013-08-20 17:17:00,88.2,45.7,29.15,South,180,2.3,2.3,23,0.00,CLR,,0.00,WeatherDisplay:10.37,2013-08-20 22:17:00,
2013-08-20 17:20:00,88.2,45.7,29.15,SSE,158,6.9,6.9,23,0.00,CLR,,0.00,WeatherDisplay:10.37,2013-08-20 22:20:00,
2013-08-20 17:21:00,88.2,45.7,29.15,South,180,4.6,4.6,23,0.00,CLR,,0.00,WeatherDisplay:10.37,2013-08-20 22:21:00,
2013-08-20 17:22:00,88.0,45.5,29.15,South,180,4.6,4.6,23,0.00,CLR,,0.00,WeatherDisplay:10.37,2013-08-20 22:22:00,
2013-08-20 17:24:00,88.0,46.7,29.15,SSE,158,2.6,2.6,24,0.00,CLR,,0.00,WeatherDisplay:10.37,2013-08-20 22:24:00,
2013-08-20 17:26:00,87.8,46.5,29.15,SSE,158,12.3,12.3,24,0.00,CLR,,0.00,WeatherDisplay:10.37,2013-08-20 22:26:00,
2013-08-20 17:28:00,87.8,45.4,29.15,SSE,158,8.1,8.1,23,0.00,CLR,,0.00,WeatherDisplay:10.37,2013-08-20 22:28:00,
2013-08-20 17:29:00,87.8,46.5,29.15,South,180,6.9,6.9,24,0.00,CLR,,0.00,WeatherDisplay:10.37,2013-08-20 22:29:00,
2013-08-20 17:32:00,87.8,46.5,29.15,South,180,3.5,3.5,24,0.00,CLR,,0.00,WeatherDisplay:10.37,2013-08-20 22:32:00,
2013-08-20 17:34:00,87.8,46.5,29.15,South,180,8.1,8.1,24,0.00,CLR,,0.00,WeatherDisplay:10.37,2013-08-20 22:34:00,
2013-08-20 17:35:00,87.8,46.5,29.15,SSW,202,8.1,8.1,24,0.00,CLR,,0.00,WeatherDisplay:10.37,2013-08-20 22:35:00,
2013-08-20 17:37:00,87.8,46.5,29.15,ENE,68,5.8,5.8,24,0.00,CLR,,0.00,WeatherDisplay:10.37,2013-08-20 22:37:00,
2013-08-20 17:40:00,87.4,45.1,29.15,South,180,5.8,5.8,23,0.00,CLR,,0.00,WeatherDisplay:10.37,2013-08-20 22:40:00,
2013-08-20 17:41:00,87.4,45.1,29.15,SSW,202,5.8,5.8,23,0.00,CLR,,0.00,WeatherDisplay:10.37,2013-08-20 22:41:00,
2013-08-20 17:42:00,87.4,43.9,29.15,SSW,202,5.8,5.8,22,0.00,CLR,,0.00,WeatherDisplay:10.37,2013-08-20 22:42:00,
2013-08-20 17:45:00,87.2,43.7,29.15,SSW,192,3.0,0.0,22,0.00,CLR,,0.00,WeatherDisplay:10.37,2013-08-20 22:45:00,
2013-08-20 17:47:00,87.1,43.6,29.15,SSW,202,2.6,2.6,22,0.00,CLR,,0.00,WeatherDisplay:10.37,2013-08-20 22:47:00,
2013-08-20 17:48:00,87.1,43.6,29.15,SSW,202,5.8,5.8,22,0.00,CLR,,0.00,WeatherDisplay:10.37,2013-08-20 22:48:00,
2013-08-20 17:49:00,87.1,43.6,29.15,South,180,5.8,5.8,22,0.00,CLR,,0.00,WeatherDisplay:10.37,2013-08-20 22:49:00,
2013-08-20 17:51:00,87.1,43.6,29.15,SSW,202,1.6,1.6,22,0.00,CLR,,0.00,WeatherDisplay:10.37,2013-08-20 22:51:00,
2013-08-20 17:53:00,86.9,43.5,29.15,SSE,158,4.6,4.6,22,0.00,CLR,,0.00,WeatherDisplay:10.37,2013-08-20 22:53:00,
2013-08-20 17:56:00,86.7,43.3,29.15,South,180,3.5,3.5,22,0.00,CLR,,0.00,WeatherDisplay:10.37,2013-08-20 22:56:00,
2013-08-20 17:58:00,86.7,43.3,29.15,South,180,2.3,2.3,22,0.00,CLR,,0.00,WeatherDisplay:10.37,2013-08-20 22:58:00,
2013-08-20 18:01:00,86.5,44.3,29.15,SSE,158,4.7,4.7,23,0.00,CLR,,0.00,WeatherDisplay:10.37,2013-08-20 23:01:00,
2013-08-20 18:03:00,86.4,44.2,29.15,SSE,158,4.6,4.6,23,0.00,CLR,,0.00,WeatherDisplay:10.37,2013-08-20 23:03:00,
2013-08-20 18:04:00,86.4,45.3,29.15,South,180,2.3,2.3,24,0.00,CLR,,0.00,WeatherDisplay:10.37,2013-08-20 23:04:00,
2013-08-20 18:05:00,86.5,45.4,29.15,South,188,1.0,0.0,24,0.00,CLR,,0.00,WeatherDisplay:10.37,2013-08-20 23:05:00,
2013-08-20 18:07:00,86.4,45.3,29.15,SSE,158,5.8,5.8,24,0.00,CLR,,0.00,WeatherDisplay:10.37,2013-08-20 23:07:00,
2013-08-20 18:08:00,86.4,46.4,29.15,SSW,202,4.6,0.0,25,0.00,CLR,,0.00,WeatherDisplay:10.37,2013-08-20 23:08:00,
2013-08-20 18:13:00,86.2,47.3,29.12,South,180,1.1,1.1,26,0.00,CLR,,0.00,WeatherDisplay:10.37,2013-08-20 23:13:00,
2013-08-20 18:14:00,86.0,47.1,29.12,South,180,3.5,3.5,26,0.00,CLR,,0.00,WeatherDisplay:10.37,2013-08-20 23:14:00,
2013-08-20 18:15:00,86.0,47.1,29.12,WSW,248,3.5,3.5,26,0.00,CLR,,0.00,WeatherDisplay:10.37,2013-08-20 23:15:00,
2013-08-20 18:18:00,85.8,48.0,29.12,SSE,158,3.5,3.5,27,0.00,CLR,,0.00,WeatherDisplay:10.37,2013-08-20 23:18:00,
2013-08-20 18:19:00,85.8,48.0,29.12,South,180,3.5,3.5,27,0.00,CLR,,0.00,WeatherDisplay:10.37,2013-08-20 23:19:00,
2013-08-20 18:20:00,85.8,48.0,29.12,South,184,2.0,0.0,27,0.00,CLR,,0.00,WeatherDisplay:10.37,2013-08-20 23:20:00,
2013-08-20 18:24:00,85.6,48.8,29.12,SSE,158,3.3,3.3,28,0.00,CLR,,0.00,WeatherDisplay:10.37,2013-08-20 23:24:00,
2013-08-20 18:25:00,85.6,48.8,29.12,South,171,1.0,0.0,28,0.00,CLR,,0.00,WeatherDisplay:10.37,2013-08-20 23:25:00,
2013-08-20 18:26:00,85.6,48.8,29.15,South,180,4.9,4.9,28,0.00,CLR,,0.00,WeatherDisplay:10.37,2013-08-20 23:26:00,
2013-08-20 18:28:00,85.6,48.8,29.15,SSE,158,3.5,3.5,28,0.00,CLR,,0.00,WeatherDisplay:10.37,2013-08-20 23:28:00,
2013-08-20 18:29:00,85.6,48.8,29.15,SSW,202,5.4,5.4,28,0.00,CLR,,0.00,WeatherDisplay:10.37,2013-08-20 23:29:00,
2013-08-20 18:30:00,85.6,48.8,29.15,SE,135,5.8,5.8,28,0.00,CLR,,0.00,WeatherDisplay:10.37,2013-08-20 23:30:00,
2013-08-20 18:32:00,85.5,48.6,29.15,South,180,4.9,4.9,28,0.00,CLR,,0.00,WeatherDisplay:10.37,2013-08-20 23:32:00,
2013-08-20 18:35:00,85.3,48.5,29.15,South,180,3.5,3.5,28,0.00,CLR,,0.00,WeatherDisplay:10.37,2013-08-20 23:35:00,
2013-08-20 18:36:00,85.1,48.3,29.15,South,180,3.6,3.6,28,0.00,CLR,,0.00,WeatherDisplay:10.37,2013-08-20 23:36:00,
2013-08-20 18:37:00,85.1,48.3,29.15,SE,135,4.6,4.6,28,0.00,CLR,,0.00,WeatherDisplay:10.37,2013-08-20 23:37:00,
2013-08-20 18:38:00,85.1,48.3,29.15,SSE,158,4.6,4.6,28,0.00,CLR,,0.00,WeatherDisplay:10.37,2013-08-20 23:38:00,
2013-08-20 18:41:00,84.9,49.1,29.15,West,270,4.6,4.6,29,0.00,CLR,,0.00,WeatherDisplay:10.37,2013-08-20 23:41:00,
2013-08-20 18:42:00,84.9,49.1,29.15,SSE,158,3.6,3.6,29,0.00,CLR,,0.00,WeatherDisplay:10.37,2013-08-20 23:42:00,
2013-08-20 18:43:00,84.7,49.0,29.15,SE,135,3.5,3.5,29,0.00,CLR,,0.00,WeatherDisplay:10.37,2013-08-20 23:43:00,
2013-08-20 18:44:00,84.7,49.0,29.15,SE,135,4.6,4.6,29,0.00,CLR,,0.00,WeatherDisplay:10.37,2013-08-20 23:44:00,
2013-08-20 18:47:00,84.6,48.8,29.15,SSE,158,2.4,2.4,29,0.00,CLR,,0.00,WeatherDisplay:10.37,2013-08-20 23:47:00,
2013-08-20 18:49:00,84.4,48.6,29.15,South,180,2.3,2.3,29,0.00,CLR,,0.00,WeatherDisplay:10.37,2013-08-20 23:49:00,
2013-08-20 18:51:00,84.4,48.6,29.15,SSE,158,4.6,4.6,29,0.00,CLR,,0.00,WeatherDisplay:10.37,2013-08-20 23:51:00,
2013-08-20 18:52:00,84.2,49.4,29.15,South,180,3.3,3.3,30,0.00,CLR,,0.00,WeatherDisplay:10.37,2013-08-20 23:52:00,
2013-08-20 18:53:00,84.2,48.5,29.15,SSW,202,3.5,3.5,29,0.00,CLR,,0.00,WeatherDisplay:10.37,2013-08-20 23:53:00,
2013-08-20 18:54:00,84.0,49.2,29.15,SSE,158,2.3,2.3,30,0.00,CLR,,0.00,WeatherDisplay:10.37,2013-08-20 23:54:00,
2013-08-20 18:57:00,83.8,49.1,29.15,SE,135,3.5,3.5,30,0.00,CLR,,0.00,WeatherDisplay:10.37,2013-08-20 23:57:00,
2013-08-20 18:58:00,83.8,49.1,29.15,SE,135,4.6,4.6,30,0.00,CLR,,0.00,WeatherDisplay:10.37,2013-08-20 23:58:00,
2013-08-20 18:59:00,83.8,49.1,29.15,SE,135,4.6,4.6,30,0.00,CLR,,0.00,WeatherDisplay:10.37,2013-08-20 23:59:00,
2013-08-20 19:02:00,83.5,49.7,29.15,South,180,1.1,0.0,31,0.00,CLR,,0.00,WeatherDisplay:10.37,2013-08-21 00:02:00,
2013-08-20 19:04:00,83.3,49.5,29.15,South,180,4.6,4.6,31,0.00,CLR,,0.00,WeatherDisplay:10.37,2013-08-21 00:04:00,
2013-08-20 19:05:00,83.3,49.5,29.15,South,180,4.6,4.6,31,0.00,CLR,,0.00,WeatherDisplay:10.37,2013-08-21 00:05:00,
2013-08-20 19:06:00,83.1,49.3,29.15,SSE,158,3.5,3.5,31,0.00,CLR,,0.00,WeatherDisplay:10.37,2013-08-21 00:06:00,
2013-08-20 19:07:00,83.1,49.3,29.15,SSE,158,3.5,3.5,31,0.00,CLR,,0.00,WeatherDisplay:10.37,2013-08-21 00:07:00,
2013-08-20 19:09:00,82.9,49.2,29.15,South,180,3.5,3.5,31,0.00,CLR,,0.00,WeatherDisplay:10.37,2013-08-21 00:09:00,
2013-08-20 19:10:00,82.8,49.0,29.15,SSE,158,3.5,3.5,31,0.00,CLR,,0.00,WeatherDisplay:10.37,2013-08-21 00:10:00,
2013-08-20 19:11:00,82.8,49.0,29.15,South,180,3.8,3.8,31,0.00,CLR,,0.00,WeatherDisplay:10.37,2013-08-21 00:11:00,
2013-08-20 19:13:00,82.6,48.9,29.15,SE,135,2.3,2.3,31,0.00,CLR,,0.00,WeatherDisplay:10.37,2013-08-21 00:13:00,
2013-08-20 19:14:00,82.4,49.6,29.15,SE,135,2.3,0.0,32,0.00,CLR,,0.00,WeatherDisplay:10.37,2013-08-21 00:14:00,
2013-08-20 19:15:00,82.4,49.6,29.15,SE,135,2.2,0.0,32,0.00,CLR,,0.00,WeatherDisplay:10.37,2013-08-21 00:15:00,
2013-08-20 19:19:00,82.0,49.3,29.15,SSE,158,2.3,2.3,32,0.00,CLR,,0.00,WeatherDisplay:10.37,2013-08-21 00:19:00,
2013-08-20 19:21:00,82.0,49.3,29.15,South,180,3.5,3.5,32,0.00,CLR,,0.00,WeatherDisplay:10.37,2013-08-21 00:21:00,
2013-08-20 19:23:00,81.9,49.9,29.15,SSE,158,2.3,2.3,33,0.00,CLR,,0.00,WeatherDisplay:10.37,2013-08-21 00:23:00,
2013-08-20 19:24:00,81.7,49.8,29.15,South,180,2.3,2.3,33,0.00,CLR,,0.00,WeatherDisplay:10.37,2013-08-21 00:24:00,
2013-08-20 19:26:00,81.5,49.6,29.12,SSE,158,3.5,3.5,33,0.00,CLR,,0.00,WeatherDisplay:10.37,2013-08-21 00:26:00,
2013-08-20 19:27:00,81.5,48.8,29.12,SSE,158,3.5,3.5,32,0.00,CLR,,0.00,WeatherDisplay:10.37,2013-08-21 00:27:00,
2013-08-20 19:29:00,81.3,49.5,29.12,SSE,158,2.3,2.3,33,0.00,CLR,,0.00,WeatherDisplay:10.37,2013-08-21 00:29:00,
2013-08-20 19:31:00,81.1,50.1,29.12,SSE,158,5.4,5.4,34,0.00,CLR,,0.00,WeatherDisplay:10.37,2013-08-21 00:31:00,
2013-08-20 19:32:00,81.1,50.1,29.12,SE,135,5.8,5.8,34,0.00,CLR,,0.00,WeatherDisplay:10.37,2013-08-21 00:32:00,
2013-08-20 19:34:00,81.0,49.1,29.12,SSE,158,3.8,3.8,33,0.00,CLR,,0.00,WeatherDisplay:10.37,2013-08-21 00:34:00,
2013-08-20 19:35:00,80.9,49.1,29.12,SSE,161,2.0,0.0,33,0.00,CLR,,0.00,WeatherDisplay:10.37,2013-08-21 00:35:00,
2013-08-20 19:38:00,80.6,49.6,29.12,SSE,158,3.5,3.5,34,0.00,CLR,,0.00,WeatherDisplay:10.37,2013-08-21 00:38:00,
2013-08-20 19:39:00,80.4,49.5,29.12,South,180,3.5,3.5,34,0.00,CLR,,0.00,WeatherDisplay:10.37,2013-08-21 00:39:00,
2013-08-20 19:40:00,80.4,49.5,29.12,SSE,159,2.0,0.0,34,0.00,CLR,,0.00,WeatherDisplay:10.37,2013-08-21 00:40:00,
2013-08-20 19:44:00,80.1,49.9,29.15,SSE,158,4.6,4.6,35,0.00,CLR,,0.00,WeatherDisplay:10.37,2013-08-21 00:44:00,
2013-08-20 19:45:00,79.9,49.8,29.15,SSE,158,2.9,2.9,35,0.00,CLR,,0.00,WeatherDisplay:10.37,2013-08-21 00:45:00,
2013-08-20 19:46:00,79.9,49.8,29.15,SE,135,2.3,2.3,35,0.00,CLR,,0.00,WeatherDisplay:10.37,2013-08-21 00:46:00,
2013-08-20 19:47:00,79.9,49.8,29.15,SE,135,2.3,2.3,35,0.00,CLR,,0.00,WeatherDisplay:10.37,2013-08-21 00:47:00,
2013-08-20 19:50:00,79.5,49.5,29.15,SSE,158,2.3,2.3,35,0.00,CLR,,0.00,WeatherDisplay:10.37,2013-08-21 00:50:00,
2013-08-20 19:52:00,79.3,50.1,29.15,SE,135,4.6,4.6,36,0.00,CLR,,0.00,WeatherDisplay:10.37,2013-08-21 00:52:00,
2013-08-20 19:54:00,79.2,49.9,29.15,SSE,158,3.8,3.8,36,0.00,CLR,,0.00,WeatherDisplay:10.37,2013-08-21 00:54:00,
2013-08-20 19:56:00,79.0,49.7,29.15,SSE,158,2.3,2.3,36,0.00,CLR,,0.00,WeatherDisplay:10.37,2013-08-21 00:56:00,
2013-08-20 19:57:00,79.0,49.7,29.15,SSE,158,4.0,4.0,36,0.00,CLR,,0.00,WeatherDisplay:10.37,2013-08-21 00:57:00,
2013-08-20 19:59:00,79.0,50.5,29.15,SSE,158,4.6,4.6,37,0.00,CLR,,0.00,WeatherDisplay:10.37,2013-08-21 00:59:00,
2013-08-20 20:00:00,78.8,50.3,29.15,South,180,2.3,2.6,37,0.00,CLR,,0.00,WeatherDisplay:10.37,2013-08-21 01:00:00,
2013-08-20 20:02:00,78.8,50.3,29.15,SSE,158,4.6,4.6,37,0.00,CLR,,0.00,WeatherDisplay:10.37,2013-08-21 01:02:00,
2013-08-20 20:03:00,78.6,50.9,29.15,SE,135,3.5,3.5,38,0.00,CLR,,0.00,WeatherDisplay:10.37,2013-08-21 01:03:00,
2013-08-20 20:05:00,78.4,50.7,29.15,SSE,153,1.0,0.0,38,0.00,CLR,,0.00,WeatherDisplay:10.37,2013-08-21 01:05:00,
2013-08-20 20:08:00,78.3,50.6,29.15,SSE,158,2.3,2.3,38,0.00,CLR,,0.00,WeatherDisplay:10.37,2013-08-21 01:08:00,
2013-08-20 20:11:00,78.3,50.6,29.15,SSE,158,1.1,0.0,38,0.00,CLR,,0.00,WeatherDisplay:10.37,2013-08-21 01:11:00,
2013-08-20 20:13:00,78.3,50.6,29.15,South,180,2.3,2.3,38,0.00,CLR,,0.00,WeatherDisplay:10.37,2013-08-21 01:13:00,
2013-08-20 20:14:00,78.3,50.6,29.15,ESE,112,1.1,0.0,38,0.00,CLR,,0.00,WeatherDisplay:10.37,2013-08-21 01:14:00,
2013-08-20 20:15:00,78.3,50.6,29.15,ESE,112,1.1,0.0,38,0.00,CLR,,0.00,WeatherDisplay:10.37,2013-08-21 01:15:00,
2013-08-20 20:18:00,77.5,50.6,29.15,SSE,158,3.5,3.5,39,0.00,CLR,,0.00,WeatherDisplay:10.37,2013-08-21 01:18:00,
2013-08-20 20:20:00,77.5,50.6,29.15,SSE,160,1.0,0.0,39,0.00,CLR,,0.00,WeatherDisplay:10.37,2013-08-21 01:20:00,
2013-08-20 20:22:00,77.4,51.1,29.15,South,180,3.8,3.8,40,0.00,CLR,,0.00,WeatherDisplay:10.37,2013-08-21 01:22:00,
2013-08-20 20:25:00,77.2,51.7,29.15,SSE,158,3.5,3.5,41,0.00,CLR,,0.00,WeatherDisplay:10.37,2013-08-21 01:25:00,
2013-08-20 20:27:00,77.0,51.5,29.15,SSE,158,4.6,4.6,41,0.00,CLR,,0.00,WeatherDisplay:10.37,2013-08-21 01:27:00,
2013-08-20 20:30:00,77.0,50.8,29.15,SSE,164,3.0,0.0,40,0.00,CLR,,0.00,WeatherDisplay:10.37,2013-08-21 01:30:00,
2013-08-20 20:32:00,76.8,51.3,29.15,SSE,158,2.3,2.3,41,0.00,CLR,,0.00,WeatherDisplay:10.37,2013-08-21 01:32:00,
2013-08-20 20:33:00,76.6,51.2,29.15,SE,135,2.6,2.6,41,0.00,CLR,,0.00,WeatherDisplay:10.37,2013-08-21 01:33:00,
2013-08-20 20:35:00,76.6,51.2,29.15,SE,135,3.5,3.5,41,0.00,CLR,,0.00,WeatherDisplay:10.37,2013-08-21 01:35:00,
2013-08-20 20:38:00,76.5,51.7,29.15,SSE,158,4.3,4.3,42,0.00,CLR,,0.00,WeatherDisplay:10.37,2013-08-21 01:38:00,
2013-08-20 20:39:00,76.5,51.7,29.15,SSE,158,4.6,4.6,42,0.00,CLR,,0.00,WeatherDisplay:10.37,2013-08-21 01:39:00,
2013-08-20 20:40:00,76.5,51.7,29.15,SSE,153,2.0,0.0,42,0.00,CLR,,0.00,WeatherDisplay:10.37,2013-08-21 01:40:00,
2013-08-20 20:44:00,76.3,51.5,29.15,South,180,2.3,2.3,42,0.00,CLR,,0.00,WeatherDisplay:10.37,2013-08-21 01:44:00,
2013-08-20 20:45:00,76.3,51.5,29.15,South,180,2.3,2.3,42,0.00,CLR,,0.00,WeatherDisplay:10.37,2013-08-21 01:45:00,
2013-08-20 20:47:00,76.1,51.3,29.15,SSE,158,2.3,2.3,42,0.00,CLR,,0.00,WeatherDisplay:10.37,2013-08-21 01:47:00,
2013-08-20 20:48:00,76.1,51.3,29.15,SE,135,2.3,2.3,42,0.00,CLR,,0.00,WeatherDisplay:10.37,2013-08-21 01:48:00,
2013-08-20 20:51:00,75.9,51.2,29.15,SE,135,3.5,3.5,42,0.00,CLR,,0.00,WeatherDisplay:10.37,2013-08-21 01:51:00,
2013-08-20 20:52:00,75.7,51.0,29.15,SSE,158,3.5,3.5,42,0.00,CLR,,0.00,WeatherDisplay:10.37,2013-08-21 01:52:00,
2013-08-20 20:54:00,75.7,51.6,29.15,SSE,158,2.3,2.3,43,0.00,CLR,,0.00,WeatherDisplay:10.37,2013-08-21 01:54:00,
2013-08-20 20:55:00,75.7,51.6,29.15,South,180,5.8,5.8,43,0.00,CLR,,0.00,WeatherDisplay:10.37,2013-08-21 01:55:00,
2013-08-20 20:57:00,75.6,51.5,29.15,SE,135,3.5,3.5,43,0.00,CLR,,0.00,WeatherDisplay:10.37,2013-08-21 01:57:00,
2013-08-20 20:58:00,75.6,51.5,29.15,SSW,202,2.3,0.0,43,0.00,CLR,,0.00,WeatherDisplay:10.37,2013-08-21 01:58:00,
2013-08-20 21:00:00,75.6,52.1,29.15,SSE,158,2.4,2.4,44,0.00,CLR,,0.00,WeatherDisplay:10.37,2013-08-21 02:00:00,
2013-08-20 21:01:00,75.4,51.3,29.15,South,180,3.5,3.5,43,0.00,CLR,,0.00,WeatherDisplay:10.37,2013-08-21 02:01:00,
2013-08-20 21:03:00,75.4,51.9,29.15,South,180,2.6,2.6,44,0.00,CLR,,0.00,WeatherDisplay:10.37,2013-08-21 02:03:00,
2013-08-20 21:04:00,75.4,51.3,29.15,SSE,158,2.9,2.9,43,0.00,CLR,,0.00,WeatherDisplay:10.37,2013-08-21 02:04:00,
2013-08-20 21:06:00,75.4,51.3,29.15,SE,135,4.6,4.6,43,0.00,CLR,,0.00,WeatherDisplay:10.37,2013-08-21 02:06:00,
2013-08-20 21:07:00,75.2,51.2,29.15,SSW,202,3.8,3.8,43,0.00,CLR,,0.00,WeatherDisplay:10.37,2013-08-21 02:07:00,
2013-08-20 21:08:00,75.2,51.8,29.15,SSW,202,3.5,3.5,44,0.00,CLR,,0.00,WeatherDisplay:10.37,2013-08-21 02:08:00,
2013-08-20 21:10:00,75.2,51.8,29.15,SW,225,4.6,4.6,44,0.00,CLR,,0.00,WeatherDisplay:10.37,2013-08-21 02:10:00,
2013-08-20 21:12:00,75.0,51.6,29.15,SE,135,2.6,2.6,44,0.00,CLR,,0.00,WeatherDisplay:10.37,2013-08-21 02:12:00,
2013-08-20 21:14:00,75.0,51.6,29.15,SE,135,2.3,2.3,44,0.00,CLR,,0.00,WeatherDisplay:10.37,2013-08-21 02:14:00,
2013-08-20 21:15:00,75.0,52.2,29.15,South,180,3.5,3.5,45,0.00,CLR,,0.00,WeatherDisplay:10.37,2013-08-21 02:15:00,
2013-08-20 21:16:00,75.0,52.2,29.15,South,180,3.5,3.5,45,0.00,CLR,,0.00,WeatherDisplay:10.37,2013-08-21 02:16:00,
2013-08-20 21:18:00,75.0,52.2,29.15,South,180,4.6,4.6,45,0.00,CLR,,0.00,WeatherDisplay:10.37,2013-08-21 02:18:00,
2013-08-20 21:20:00,74.8,52.1,29.15,SSW,202,5.8,5.8,45,0.00,CLR,,0.00,WeatherDisplay:10.37,2013-08-21 02:20:00,
2013-08-20 21:21:00,74.8,52.1,29.15,SSE,158,3.8,3.8,45,0.00,CLR,,0.00,WeatherDisplay:10.37,2013-08-21 02:21:00,
2013-08-20 21:22:00,74.8,52.1,29.15,SSE,158,3.5,3.5,45,0.00,CLR,,0.00,WeatherDisplay:10.37,2013-08-21 02:22:00,
2013-08-20 21:24:00,74.8,52.1,29.15,SSE,158,3.5,3.5,45,0.00,CLR,,0.00,WeatherDisplay:10.37,2013-08-21 02:24:00,
2013-08-20 21:25:00,74.8,52.1,29.15,SSE,168,3.0,0.0,45,0.00,CLR,,0.00,WeatherDisplay:10.37,2013-08-21 02:25:00,
2013-08-20 21:26:00,74.7,51.9,29.18,East,90,3.5,3.5,45,0.00,CLR,,0.00,WeatherDisplay:10.37,2013-08-21 02:26:00,
2013-08-20 21:27:00,74.7,51.9,29.18,East,90,1.1,1.1,45,0.00,CLR,,0.00,WeatherDisplay:10.37,2013-08-21 02:27:00,
2013-08-20 21:31:00,74.7,51.9,29.18,SSE,158,3.5,3.5,45,0.00,CLR,,0.00,WeatherDisplay:10.37,2013-08-21 02:31:00,
2013-08-20 21:33:00,74.5,51.7,29.18,SE,135,4.6,4.6,45,0.00,CLR,,0.00,WeatherDisplay:10.37,2013-08-21 02:33:00,
2013-08-20 21:34:00,74.5,51.7,29.18,SSE,158,3.5,3.5,45,0.00,CLR,,0.00,WeatherDisplay:10.37,2013-08-21 02:34:00,
2013-08-20 21:36:00,74.5,52.3,29.18,ESE,112,2.3,2.3,46,0.00,CLR,,0.00,WeatherDisplay:10.37,2013-08-21 02:36:00,
2013-08-20 21:38:00,74.3,52.2,29.18,SSE,158,5.8,5.8,46,0.00,CLR,,0.00,WeatherDisplay:10.37,2013-08-21 02:38:00,
2013-08-20 21:39:00,74.3,52.2,29.18,SSE,158,4.6,4.6,46,0.00,CLR,,0.00,WeatherDisplay:10.37,2013-08-21 02:39:00,
2013-08-20 21:40:00,74.3,52.2,29.18,South,180,3.5,3.5,46,0.00,CLR,,0.00,WeatherDisplay:10.37,2013-08-21 02:40:00,
2013-08-20 21:43:00,74.1,52.0,29.18,ESE,112,2.3,2.3,46,0.00,CLR,,0.00,WeatherDisplay:10.37,2013-08-21 02:43:00,
2013-08-20 21:44:00,74.1,52.0,29.18,ESE,112,2.3,2.3,46,0.00,CLR,,0.00,WeatherDisplay:10.37,2013-08-21 02:44:00,
2013-08-20 21:46:00,74.1,52.0,29.18,South,180,4.6,4.6,46,0.00,CLR,,0.00,WeatherDisplay:10.37,2013-08-21 02:46:00,
2013-08-20 21:47:00,74.1,52.0,29.18,SSE,158,2.3,2.3,46,0.00,CLR,,0.00,WeatherDisplay:10.37,2013-08-21 02:47:00,
2013-08-20 21:49:00,73.9,51.8,29.18,South,180,4.6,4.6,46,0.00,CLR,,0.00,WeatherDisplay:10.37,2013-08-21 02:49:00,
2013-08-20 21:51:00,73.9,52.4,29.18,SSE,158,4.6,4.6,47,0.00,CLR,,0.00,WeatherDisplay:10.37,2013-08-21 02:51:00,
2013-08-20 21:52:00,73.9,52.4,29.18,SE,135,3.5,3.5,47,0.00,CLR,,0.00,WeatherDisplay:10.37,2013-08-21 02:52:00,
2013-08-20 21:54:00,73.8,52.8,29.18,SSE,158,3.5,3.5,48,0.00,CLR,,0.00,WeatherDisplay:10.37,2013-08-21 02:54:00,
2013-08-20 21:56:00,73.8,52.8,29.18,SSW,202,3.5,3.5,48,0.00,CLR,,0.00,WeatherDisplay:10.37,2013-08-21 02:56:00,
2013-08-20 21:57:00,73.8,52.8,29.18,SSE,158,3.3,3.3,48,0.00,CLR,,0.00,WeatherDisplay:10.37,2013-08-21 02:57:00,
2013-08-20 21:58:00,73.8,52.3,29.18,South,180,3.5,3.5,47,0.00,CLR,,0.00,WeatherDisplay:10.37,2013-08-21 02:58:00,
2013-08-20 21:59:00,73.6,52.1,29.18,South,180,3.5,3.5,47,0.00,CLR,,0.00,WeatherDisplay:10.37,2013-08-21 02:59:00,
2013-08-20 22:00:00,73.6,52.1,29.18,South,180,2.3,2.3,47,0.00,CLR,,0.00,WeatherDisplay:10.37,2013-08-21 03:00:00,
2013-08-20 22:03:00,73.6,52.7,29.18,SE,135,3.5,3.5,48,0.00,CLR,,0.00,WeatherDisplay:10.37,2013-08-21 03:03:00,
2013-08-20 22:05:00,73.6,52.7,29.18,SSE,158,2.3,2.6,48,0.00,CLR,,0.00,WeatherDisplay:10.37,2013-08-21 03:05:00,
2013-08-20 22:07:00,73.6,52.7,29.18,SSE,158,2.3,2.3,48,0.00,CLR,,0.00,WeatherDisplay:10.37,2013-08-21 03:07:00,
2013-08-20 22:09:00,73.4,52.5,29.18,SSE,158,4.6,4.6,48,0.00,CLR,,0.00,WeatherDisplay:10.37,2013-08-21 03:09:00,
2013-08-20 22:10:00,73.4,52.5,29.18,SSE,156,2.0,0.0,48,0.00,CLR,,0.00,WeatherDisplay:10.37,2013-08-21 03:10:00,
2013-08-20 22:11:00,73.4,52.5,29.18,SE,135,3.5,3.5,48,0.00,CLR,,0.00,WeatherDisplay:10.37,2013-08-21 03:11:00,
2013-08-20 22:13:00,73.4,52.5,29.18,SE,135,3.5,3.5,48,0.00,CLR,,0.00,WeatherDisplay:10.37,2013-08-21 03:13:00,
2013-08-20 22:14:00,73.4,52.5,29.18,SE,135,4.6,4.6,48,0.00,CLR,,0.00,WeatherDisplay:10.37,2013-08-21 03:14:00,
2013-08-20 22:16:00,73.2,52.9,29.18,South,180,5.8,5.8,49,0.00,CLR,,0.00,WeatherDisplay:10.37,2013-08-21 03:16:00,
2013-08-20 22:18:00,73.2,53.5,29.18,SSE,158,5.8,5.8,50,0.00,CLR,,0.00,WeatherDisplay:10.37,2013-08-21 03:18:00,
2013-08-20 22:19:00,73.2,52.9,29.18,SSE,158,4.3,4.3,49,0.00,CLR,,0.00,WeatherDisplay:10.37,2013-08-21 03:19:00,
2013-08-20 22:21:00,73.2,53.5,29.18,SSE,158,5.8,5.8,50,0.00,CLR,,0.00,WeatherDisplay:10.37,2013-08-21 03:21:00,
2013-08-20 22:22:00,73.2,53.5,29.18,SSE,158,4.6,4.6,50,0.00,CLR,,0.00,WeatherDisplay:10.37,2013-08-21 03:22:00,
2013-08-20 22:24:00,73.2,52.9,29.18,South,180,3.5,3.6,49,0.00,CLR,,0.00,WeatherDisplay:10.37,2013-08-21 03:24:00,
2013-08-20 22:25:00,73.2,52.9,29.18,SSE,166,2.0,0.0,49,0.00,CLR,,0.00,WeatherDisplay:10.37,2013-08-21 03:25:00,
2013-08-20 22:26:00,73.0,53.3,29.18,SSE,158,3.6,3.6,50,0.00,CLR,,0.00,WeatherDisplay:10.37,2013-08-21 03:26:00,
2013-08-20 22:27:00,73.0,53.3,29.18,South,180,4.6,4.6,50,0.00,CLR,,0.00,WeatherDisplay:10.37,2013-08-21 03:27:00,
2013-08-20 22:29:00,73.0,53.3,29.18,SSE,158,2.3,2.3,50,0.00,CLR,,0.00,WeatherDisplay:10.37,2013-08-21 03:29:00,
2013-08-20 22:30:00,73.0,53.3,29.18,SSE,158,3.5,3.5,50,0.00,CLR,,0.00,WeatherDisplay:10.37,2013-08-21 03:30:00,
2013-08-20 22:31:00,73.0,53.3,29.18,SSE,158,3.6,3.6,50,0.00,CLR,,0.00,WeatherDisplay:10.37,2013-08-21 03:31:00,
2013-08-20 22:33:00,72.9,53.1,29.18,South,180,3.5,3.5,50,0.00,CLR,,0.00,WeatherDisplay:10.37,2013-08-21 03:33:00,
2013-08-20 22:34:00,72.9,53.1,29.18,SSW,202,3.5,3.5,50,0.00,CLR,,0.00,WeatherDisplay:10.37,2013-08-21 03:34:00,
2013-08-20 22:36:00,72.9,53.1,29.18,SSE,158,3.5,3.5,50,0.00,CLR,,0.00,WeatherDisplay:10.37,2013-08-21 03:36:00,
2013-08-20 22:38:00,72.9,53.7,29.18,SSE,158,4.6,4.6,51,0.00,CLR,,0.00,WeatherDisplay:10.37,2013-08-21 03:38:00,
2013-08-20 22:39:00,72.9,53.7,29.18,SSE,158,5.8,5.8,51,0.00,CLR,,0.00,WeatherDisplay:10.37,2013-08-21 03:39:00,
2013-08-20 22:41:00,72.9,53.7,29.20,SSE,158,3.3,3.3,51,0.00,CLR,,0.00,WeatherDisplay:10.37,2013-08-21 03:41:00,
2013-08-20 22:43:00,72.7,53.5,29.20,SSE,158,6.0,6.0,51,0.00,CLR,,0.00,WeatherDisplay:10.37,2013-08-21 03:43:00,
2013-08-20 22:44:00,72.7,53.0,29.20,SSE,158,5.8,5.8,50,0.00,CLR,,0.00,WeatherDisplay:10.37,2013-08-21 03:44:00,
2013-08-20 22:45:00,72.7,53.5,29.20,SSE,158,3.5,4.0,51,0.00,CLR,,0.00,WeatherDisplay:10.37,2013-08-21 03:45:00,
2013-08-20 22:48:00,72.7,53.0,29.20,South,180,3.5,3.5,50,0.00,CLR,,0.00,WeatherDisplay:10.37,2013-08-21 03:48:00,
2013-08-20 22:49:00,72.7,53.5,29.20,SSE,158,3.5,3.5,51,0.00,CLR,,0.00,WeatherDisplay:10.37,2013-08-21 03:49:00,
2013-08-20 22:52:00,72.5,53.3,29.20,SE,135,3.5,3.5,51,0.00,CLR,,0.00,WeatherDisplay:10.37,2013-08-21 03:52:00,
2013-08-20 22:54:00,72.5,53.3,29.20,SSE,158,5.8,5.8,51,0.00,CLR,,0.00,WeatherDisplay:10.37,2013-08-21 03:54:00,
2013-08-20 22:55:00,72.5,53.3,29.20,SSE,157,3.0,0.0,51,0.00,CLR,,0.00,WeatherDisplay:10.37,2013-08-21 03:55:00,
2013-08-20 22:57:00,72.5,53.9,29.18,South,180,3.5,3.5,52,0.00,CLR,,0.00,WeatherDisplay:10.37,2013-08-21 03:57:00,
2013-08-20 22:59:00,72.5,53.9,29.18,South,180,2.3,2.3,52,0.00,CLR,,0.00,WeatherDisplay:10.37,2013-08-21 03:59:00,
2013-08-20 23:00:00,72.5,53.9,29.18,South,180,2.9,0.0,52,0.00,CLR,,0.00,WeatherDisplay:10.37,2013-08-21 04:00:00,
2013-08-20 23:01:00,72.5,53.9,29.18,South,180,2.3,2.3,52,0.00,CLR,,0.00,WeatherDisplay:10.37,2013-08-21 04:01:00,
2013-08-20 23:02:00,72.3,53.7,29.18,South,180,2.3,2.3,52,0.00,CLR,,0.00,WeatherDisplay:10.37,2013-08-21 04:02:00,
2013-08-20 23:03:00,72.3,54.2,29.18,SE,135,3.6,0.0,53,0.00,CLR,,0.00,WeatherDisplay:10.37,2013-08-21 04:03:00,
2013-08-20 23:08:00,72.3,53.7,29.18,SSE,158,5.8,5.8,52,0.00,CLR,,0.00,WeatherDisplay:10.37,2013-08-21 04:08:00,
2013-08-20 23:09:00,72.3,54.2,29.18,SSE,158,4.6,4.6,53,0.00,CLR,,0.00,WeatherDisplay:10.37,2013-08-21 04:09:00,
2013-08-20 23:10:00,72.1,53.5,29.18,SSE,158,4.0,4.0,52,0.00,CLR,,0.00,WeatherDisplay:10.37,2013-08-21 04:10:00,
2013-08-20 23:13:00,72.1,54.1,29.20,SSE,158,2.3,2.3,53,0.00,CLR,,0.00,WeatherDisplay:10.37,2013-08-21 04:13:00,
2013-08-20 23:14:00,72.1,54.1,29.20,SSE,158,2.6,2.6,53,0.00,CLR,,0.00,WeatherDisplay:10.37,2013-08-21 04:14:00,
2013-08-20 23:16:00,72.1,54.1,29.20,SSE,158,4.6,4.6,53,0.00,CLR,,0.00,WeatherDisplay:10.37,2013-08-21 04:16:00,
2013-08-20 23:19:00,72.1,54.1,29.20,SSE,158,4.6,4.6,53,0.00,CLR,,0.00,WeatherDisplay:10.37,2013-08-21 04:19:00,
2013-08-20 23:20:00,72.1,54.0,29.20,SSE,157,3.0,0.0,53,0.00,CLR,,0.00,WeatherDisplay:10.37,2013-08-21 04:20:00,
2013-08-20 23:23:00,72.0,54.4,29.20,SE,135,3.5,3.5,54,0.00,CLR,,0.00,WeatherDisplay:10.37,2013-08-21 04:23:00,
2013-08-20 23:24:00,72.0,54.4,29.20,SE,135,3.5,3.5,54,0.00,CLR,,0.00,WeatherDisplay:10.37,2013-08-21 04:24:00,
2013-08-20 23:25:00,72.0,54.4,29.20,SSE,158,3.5,3.5,54,0.00,CLR,,0.00,WeatherDisplay:10.37,2013-08-21 04:25:00,
2013-08-20 23:28:00,72.0,54.4,29.18,South,180,4.6,4.6,54,0.00,CLR,,0.00,WeatherDisplay:10.37,2013-08-21 04:28:00,
2013-08-20 23:30:00,72.0,54.4,29.18,SSE,162,2.0,0.0,54,0.00,CLR,,0.00,WeatherDisplay:10.37,2013-08-21 04:30:00,
2013-08-20 23:31:00,71.8,54.2,29.18,SSE,158,3.8,3.8,54,0.00,CLR,,0.00,WeatherDisplay:10.37,2013-08-21 04:31:00,
2013-08-20 23:33:00,71.8,54.2,29.18,South,180,3.5,3.5,54,0.00,CLR,,0.00,WeatherDisplay:10.37,2013-08-21 04:33:00,
2013-08-20 23:35:00,71.8,54.2,29.18,SSE,168,2.0,0.0,54,0.00,CLR,,0.00,WeatherDisplay:10.37,2013-08-21 04:35:00,
2013-08-20 23:36:00,71.8,54.2,29.18,SSE,158,2.6,2.6,54,0.00,CLR,,0.00,WeatherDisplay:10.37,2013-08-21 04:36:00,
2013-08-20 23:39:00,71.8,54.7,29.18,SSE,158,3.5,3.5,55,0.00,CLR,,0.00,WeatherDisplay:10.37,2013-08-21 04:39:00,
2013-08-20 23:40:00,71.8,54.2,29.18,SSE,158,3.5,3.5,54,0.00,CLR,,0.00,WeatherDisplay:10.37,2013-08-21 04:40:00,
2013-08-20 23:41:00,71.8,54.2,29.18,South,180,2.3,2.3,54,0.00,CLR,,0.00,WeatherDisplay:10.37,2013-08-21 04:41:00,
2013-08-20 23:45:00,71.6,54.1,29.18,SSE,158,1.0,0.0,54,0.00,CLR,,0.00,WeatherDisplay:10.37,2013-08-21 04:45:00,
2013-08-20 23:46:00,71.6,54.6,29.18,SE,135,3.5,3.5,55,0.00,CLR,,0.00,WeatherDisplay:10.37,2013-08-21 04:46:00,
2013-08-20 23:47:00,71.6,54.6,29.18,SSW,202,2.3,2.3,55,0.00,CLR,,0.00,WeatherDisplay:10.37,2013-08-21 04:47:00,
2013-08-20 23:49:00,71.6,54.6,29.18,SSE,158,2.6,2.6,55,0.00,CLR,,0.00,WeatherDisplay:10.37,2013-08-21 04:49:00,
2013-08-20 23:50:00,71.6,54.6,29.18,South,180,2.9,2.9,55,0.00,CLR,,0.00,WeatherDisplay:10.37,2013-08-21 04:50:00,
2013-08-20 23:51:00,71.6,54.6,29.18,ESE,112,3.3,3.3,55,0.00,CLR,,0.00,WeatherDisplay:10.37,2013-08-21 04:51:00,
2013-08-20 23:52:00,71.6,54.6,29.18,SSE,158,4.6,4.6,55,0.00,CLR,,0.00,WeatherDisplay:10.37,2013-08-21 04:52:00,
2013-08-20 23:54:00,71.6,54.6,29.18,SSE,158,3.5,3.5,55,0.00,CLR,,0.00,WeatherDisplay:10.37,2013-08-21 04:54:00,
2013-08-20 23:57:00,71.4,54.4,29.18,SE,135,2.6,2.6,55,0.00,CLR,,0.00,WeatherDisplay:10.37,2013-08-21 04:57:00,
2013-08-20 23:58:00,71.4,54.4,29.18,SE,135,2.9,2.9,55,0.00,CLR,,0.00,WeatherDisplay:10.37,2013-08-21 04:58:00,